<?xml version="1.0" encoding="UTF-8" standalone="no" ?>
<gpx xmlns="http://www.topografix.com/GPX/1/1" xmlns:xsi="http://www.w3.org/2001/XMLSchema-instance" xsi:schemaLocation="http://www.topografix.com/GPX/1/1 http://www.topografix.com/GPX/1/1/gpx.xsd" version="1.1" creator="VisuGPX - https://www.visugpx.com">
  <metadata>
    <name>Dourdan-22/02/2018</name>
    <desc><![CDATA[Circuit facile, peu être fait en 2 heures]]></desc>
  </metadata>
  <trk>
    <name><![CDATA[20180223103810-2KgfT]]></name>
    <trkseg>
      <trkpt lat="48.53423" lon="2.00979">
        <ele>120</ele>
        <time>2018-02-22T13:39:49.009Z</time>
      </trkpt>
      <trkpt lat="48.53425" lon="2.00975">
        <ele>120</ele>
        <time>2018-02-22T13:39:52.009Z</time>
      </trkpt>
      <trkpt lat="48.53428" lon="2.00971">
        <ele>120</ele>
        <time>2018-02-22T13:40:00.009Z</time>
      </trkpt>
      <trkpt lat="48.53429" lon="2.00965">
        <ele>120</ele>
        <time>2018-02-22T13:40:13.009Z</time>
      </trkpt>
      <trkpt lat="48.53433" lon="2.00965">
        <ele>120</ele>
        <time>2018-02-22T13:40:18.009Z</time>
      </trkpt>
      <trkpt lat="48.53436" lon="2.00967">
        <ele>120</ele>
        <time>2018-02-22T13:40:22.009Z</time>
      </trkpt>
      <trkpt lat="48.53439" lon="2.0097">
        <ele>120</ele>
        <time>2018-02-22T13:40:28.009Z</time>
      </trkpt>
      <trkpt lat="48.53439" lon="2.00977">
        <ele>120</ele>
        <time>2018-02-22T13:40:32.009Z</time>
      </trkpt>
      <trkpt lat="48.53438" lon="2.00983">
        <ele>120</ele>
        <time>2018-02-22T13:40:35.009Z</time>
      </trkpt>
      <trkpt lat="48.53437" lon="2.00989">
        <ele>120</ele>
        <time>2018-02-22T13:40:38.009Z</time>
      </trkpt>
      <trkpt lat="48.53436" lon="2.00995">
        <ele>120</ele>
        <time>2018-02-22T13:40:42.009Z</time>
      </trkpt>
      <trkpt lat="48.53436" lon="2.01002">
        <ele>120</ele>
        <time>2018-02-22T13:40:46.009Z</time>
      </trkpt>
      <trkpt lat="48.53436" lon="2.01008">
        <ele>120</ele>
        <time>2018-02-22T13:40:49.009Z</time>
      </trkpt>
      <trkpt lat="48.53439" lon="2.01012">
        <ele>120</ele>
        <time>2018-02-22T13:40:54.009Z</time>
      </trkpt>
      <trkpt lat="48.53442" lon="2.01014">
        <ele>120</ele>
        <time>2018-02-22T13:40:58.009Z</time>
      </trkpt>
      <trkpt lat="48.53447" lon="2.01016">
        <ele>120</ele>
        <time>2018-02-22T13:41:02.009Z</time>
      </trkpt>
      <trkpt lat="48.53451" lon="2.01018">
        <ele>121</ele>
        <time>2018-02-22T13:41:06.009Z</time>
      </trkpt>
      <trkpt lat="48.53455" lon="2.01019">
        <ele>121</ele>
        <time>2018-02-22T13:41:10.009Z</time>
      </trkpt>
      <trkpt lat="48.5346" lon="2.01019">
        <ele>121</ele>
        <time>2018-02-22T13:41:17.009Z</time>
      </trkpt>
      <trkpt lat="48.53464" lon="2.0102">
        <ele>121</ele>
        <time>2018-02-22T13:41:20.009Z</time>
      </trkpt>
      <trkpt lat="48.53468" lon="2.01022">
        <ele>121</ele>
        <time>2018-02-22T13:41:23.009Z</time>
      </trkpt>
      <trkpt lat="48.53472" lon="2.01024">
        <ele>122</ele>
        <time>2018-02-22T13:41:26.009Z</time>
      </trkpt>
      <trkpt lat="48.53476" lon="2.01026">
        <ele>122</ele>
        <time>2018-02-22T13:41:29.009Z</time>
      </trkpt>
      <trkpt lat="48.5348" lon="2.01027">
        <ele>122</ele>
        <time>2018-02-22T13:41:32.009Z</time>
      </trkpt>
      <trkpt lat="48.53484" lon="2.01027">
        <ele>122</ele>
        <time>2018-02-22T13:41:34.009Z</time>
      </trkpt>
      <trkpt lat="48.53488" lon="2.01029">
        <ele>122</ele>
        <time>2018-02-22T13:41:37.009Z</time>
      </trkpt>
      <trkpt lat="48.53491" lon="2.01032">
        <ele>122</ele>
        <time>2018-02-22T13:41:41.009Z</time>
      </trkpt>
      <trkpt lat="48.53495" lon="2.01033">
        <ele>122</ele>
        <time>2018-02-22T13:41:45.009Z</time>
      </trkpt>
      <trkpt lat="48.53498" lon="2.01037">
        <ele>122</ele>
        <time>2018-02-22T13:41:48.009Z</time>
      </trkpt>
      <trkpt lat="48.53501" lon="2.0104">
        <ele>126</ele>
        <time>2018-02-22T13:41:51.009Z</time>
      </trkpt>
      <trkpt lat="48.53505" lon="2.01044">
        <ele>126</ele>
        <time>2018-02-22T13:41:55.009Z</time>
      </trkpt>
      <trkpt lat="48.53508" lon="2.01044">
        <ele>126</ele>
        <time>2018-02-22T13:41:59.009Z</time>
      </trkpt>
      <trkpt lat="48.53512" lon="2.01044">
        <ele>126</ele>
        <time>2018-02-22T13:42:02.009Z</time>
      </trkpt>
      <trkpt lat="48.53516" lon="2.01045">
        <ele>126</ele>
        <time>2018-02-22T13:42:05.009Z</time>
      </trkpt>
      <trkpt lat="48.5352" lon="2.01046">
        <ele>126</ele>
        <time>2018-02-22T13:42:08.009Z</time>
      </trkpt>
      <trkpt lat="48.53524" lon="2.01047">
        <ele>126</ele>
        <time>2018-02-22T13:42:12.009Z</time>
      </trkpt>
      <trkpt lat="48.53528" lon="2.01048">
        <ele>126</ele>
        <time>2018-02-22T13:42:15.009Z</time>
      </trkpt>
      <trkpt lat="48.53532" lon="2.0105">
        <ele>126</ele>
        <time>2018-02-22T13:42:18.009Z</time>
      </trkpt>
      <trkpt lat="48.53536" lon="2.01052">
        <ele>126</ele>
        <time>2018-02-22T13:42:22.009Z</time>
      </trkpt>
      <trkpt lat="48.5354" lon="2.01053">
        <ele>127</ele>
        <time>2018-02-22T13:42:26.009Z</time>
      </trkpt>
      <trkpt lat="48.53544" lon="2.01055">
        <ele>127</ele>
        <time>2018-02-22T13:42:30.009Z</time>
      </trkpt>
      <trkpt lat="48.53549" lon="2.01056">
        <ele>127</ele>
        <time>2018-02-22T13:42:34.009Z</time>
      </trkpt>
      <trkpt lat="48.53552" lon="2.01057">
        <ele>127</ele>
        <time>2018-02-22T13:42:37.009Z</time>
      </trkpt>
      <trkpt lat="48.53557" lon="2.01059">
        <ele>127</ele>
        <time>2018-02-22T13:42:41.009Z</time>
      </trkpt>
      <trkpt lat="48.53567" lon="2.01062">
        <ele>128</ele>
        <time>2018-02-22T13:42:50.011Z</time>
      </trkpt>
      <trkpt lat="48.53575" lon="2.01066">
        <ele>128</ele>
        <time>2018-02-22T13:42:58.007Z</time>
      </trkpt>
      <trkpt lat="48.53584" lon="2.01071">
        <ele>131</ele>
        <time>2018-02-22T13:43:07.010Z</time>
      </trkpt>
      <trkpt lat="48.53593" lon="2.01076">
        <ele>131</ele>
        <time>2018-02-22T13:43:20.011Z</time>
      </trkpt>
      <trkpt lat="48.53603" lon="2.01079">
        <ele>131</ele>
        <time>2018-02-22T13:43:28.040Z</time>
      </trkpt>
      <trkpt lat="48.53613" lon="2.01074">
        <ele>132</ele>
        <time>2018-02-22T13:43:33.009Z</time>
      </trkpt>
      <trkpt lat="48.53623" lon="2.01074">
        <ele>132</ele>
        <time>2018-02-22T13:43:40.009Z</time>
      </trkpt>
      <trkpt lat="48.53632" lon="2.01074">
        <ele>133</ele>
        <time>2018-02-22T13:43:50.034Z</time>
      </trkpt>
      <trkpt lat="48.53641" lon="2.01083">
        <ele>133</ele>
        <time>2018-02-22T13:43:59.007Z</time>
      </trkpt>
      <trkpt lat="48.53649" lon="2.01089">
        <ele>135</ele>
        <time>2018-02-22T13:44:07.011Z</time>
      </trkpt>
      <trkpt lat="48.53658" lon="2.01093">
        <ele>135</ele>
        <time>2018-02-22T13:44:17.007Z</time>
      </trkpt>
      <trkpt lat="48.53666" lon="2.01099">
        <ele>135</ele>
        <time>2018-02-22T13:44:27.010Z</time>
      </trkpt>
      <trkpt lat="48.53675" lon="2.01103">
        <ele>137</ele>
        <time>2018-02-22T13:44:37.011Z</time>
      </trkpt>
      <trkpt lat="48.53684" lon="2.01108">
        <ele>137</ele>
        <time>2018-02-22T13:44:52.007Z</time>
      </trkpt>
      <trkpt lat="48.53693" lon="2.01114">
        <ele>137</ele>
        <time>2018-02-22T13:45:01.011Z</time>
      </trkpt>
      <trkpt lat="48.53702" lon="2.01115">
        <ele>138</ele>
        <time>2018-02-22T13:45:10.035Z</time>
      </trkpt>
      <trkpt lat="48.53711" lon="2.01119">
        <ele>138</ele>
        <time>2018-02-22T13:45:21.009Z</time>
      </trkpt>
      <trkpt lat="48.5372" lon="2.01125">
        <ele>138</ele>
        <time>2018-02-22T13:45:30.007Z</time>
      </trkpt>
      <trkpt lat="48.53729" lon="2.01133">
        <ele>138</ele>
        <time>2018-02-22T13:45:41.008Z</time>
      </trkpt>
      <trkpt lat="48.53737" lon="2.01142">
        <ele>138</ele>
        <time>2018-02-22T13:45:50.011Z</time>
      </trkpt>
      <trkpt lat="48.53745" lon="2.01148">
        <ele>139</ele>
        <time>2018-02-22T13:45:58.010Z</time>
      </trkpt>
      <trkpt lat="48.53754" lon="2.01154">
        <ele>141</ele>
        <time>2018-02-22T13:46:07.010Z</time>
      </trkpt>
      <trkpt lat="48.53763" lon="2.01159">
        <ele>142</ele>
        <time>2018-02-22T13:46:16.012Z</time>
      </trkpt>
      <trkpt lat="48.53773" lon="2.01161">
        <ele>143</ele>
        <time>2018-02-22T13:46:27.006Z</time>
      </trkpt>
      <trkpt lat="48.53784" lon="2.01158">
        <ele>144</ele>
        <time>2018-02-22T13:46:32.009Z</time>
      </trkpt>
      <trkpt lat="48.53792" lon="2.01151">
        <ele>144</ele>
        <time>2018-02-22T13:46:36.009Z</time>
      </trkpt>
      <trkpt lat="48.53802" lon="2.01144">
        <ele>145</ele>
        <time>2018-02-22T13:46:51.040Z</time>
      </trkpt>
      <trkpt lat="48.53811" lon="2.01148">
        <ele>146</ele>
        <time>2018-02-22T13:46:53.009Z</time>
      </trkpt>
      <trkpt lat="48.53821" lon="2.01153">
        <ele>147</ele>
        <time>2018-02-22T13:46:56.009Z</time>
      </trkpt>
      <trkpt lat="48.53828" lon="2.01162">
        <ele>149</ele>
        <time>2018-02-22T13:47:02.009Z</time>
      </trkpt>
      <trkpt lat="48.53836" lon="2.0117">
        <ele>152</ele>
        <time>2018-02-22T13:47:09.009Z</time>
      </trkpt>
      <trkpt lat="48.53845" lon="2.01176">
        <ele>155</ele>
        <time>2018-02-22T13:47:15.009Z</time>
      </trkpt>
      <trkpt lat="48.53853" lon="2.01185">
        <ele>156</ele>
        <time>2018-02-22T13:47:26.009Z</time>
      </trkpt>
      <trkpt lat="48.53862" lon="2.01189">
        <ele>157</ele>
        <time>2018-02-22T13:47:34.009Z</time>
      </trkpt>
      <trkpt lat="48.53871" lon="2.01195">
        <ele>158</ele>
        <time>2018-02-22T13:47:43.009Z</time>
      </trkpt>
      <trkpt lat="48.53881" lon="2.01197">
        <ele>159</ele>
        <time>2018-02-22T13:47:53.009Z</time>
      </trkpt>
      <trkpt lat="48.53889" lon="2.01202">
        <ele>159</ele>
        <time>2018-02-22T13:48:02.009Z</time>
      </trkpt>
      <trkpt lat="48.53898" lon="2.01207">
        <ele>160</ele>
        <time>2018-02-22T13:48:15.009Z</time>
      </trkpt>
      <trkpt lat="48.53907" lon="2.01212">
        <ele>160</ele>
        <time>2018-02-22T13:48:24.009Z</time>
      </trkpt>
      <trkpt lat="48.53916" lon="2.01209">
        <ele>160</ele>
        <time>2018-02-22T13:48:35.009Z</time>
      </trkpt>
      <trkpt lat="48.53925" lon="2.01212">
        <ele>163</ele>
        <time>2018-02-22T13:48:44.006Z</time>
      </trkpt>
      <trkpt lat="48.53934" lon="2.01209">
        <ele>163</ele>
        <time>2018-02-22T13:49:48.006Z</time>
      </trkpt>
      <trkpt lat="48.5394" lon="2.0122">
        <ele>163</ele>
        <time>2018-02-22T13:50:10.040Z</time>
      </trkpt>
      <trkpt lat="48.5394" lon="2.01235">
        <ele>162</ele>
        <time>2018-02-22T13:50:20.010Z</time>
      </trkpt>
      <trkpt lat="48.53935" lon="2.01248">
        <ele>162</ele>
        <time>2018-02-22T13:50:33.009Z</time>
      </trkpt>
      <trkpt lat="48.53933" lon="2.01261">
        <ele>161</ele>
        <time>2018-02-22T13:50:42.010Z</time>
      </trkpt>
      <trkpt lat="48.53931" lon="2.01276">
        <ele>160</ele>
        <time>2018-02-22T13:50:51.009Z</time>
      </trkpt>
      <trkpt lat="48.5393" lon="2.01289">
        <ele>160</ele>
        <time>2018-02-22T13:50:58.010Z</time>
      </trkpt>
      <trkpt lat="48.53928" lon="2.01303">
        <ele>159</ele>
        <time>2018-02-22T13:51:06.006Z</time>
      </trkpt>
      <trkpt lat="48.53928" lon="2.01317">
        <ele>159</ele>
        <time>2018-02-22T13:51:14.007Z</time>
      </trkpt>
      <trkpt lat="48.53929" lon="2.01332">
        <ele>159</ele>
        <time>2018-02-22T13:51:22.010Z</time>
      </trkpt>
      <trkpt lat="48.5393" lon="2.01347">
        <ele>158</ele>
        <time>2018-02-22T13:51:29.010Z</time>
      </trkpt>
      <trkpt lat="48.5393" lon="2.01361">
        <ele>158</ele>
        <time>2018-02-22T13:51:36.007Z</time>
      </trkpt>
      <trkpt lat="48.5393" lon="2.01376">
        <ele>157</ele>
        <time>2018-02-22T13:51:44.010Z</time>
      </trkpt>
      <trkpt lat="48.53931" lon="2.01391">
        <ele>157</ele>
        <time>2018-02-22T13:51:52.010Z</time>
      </trkpt>
      <trkpt lat="48.53931" lon="2.01405">
        <ele>157</ele>
        <time>2018-02-22T13:52:01.011Z</time>
      </trkpt>
      <trkpt lat="48.53931" lon="2.01421">
        <ele>157</ele>
        <time>2018-02-22T13:52:08.009Z</time>
      </trkpt>
      <trkpt lat="48.53931" lon="2.01435">
        <ele>157</ele>
        <time>2018-02-22T13:52:16.011Z</time>
      </trkpt>
      <trkpt lat="48.5393" lon="2.01449">
        <ele>157</ele>
        <time>2018-02-22T13:52:23.007Z</time>
      </trkpt>
      <trkpt lat="48.53928" lon="2.01464">
        <ele>157</ele>
        <time>2018-02-22T13:52:33.009Z</time>
      </trkpt>
      <trkpt lat="48.53925" lon="2.01478">
        <ele>158</ele>
        <time>2018-02-22T13:52:40.011Z</time>
      </trkpt>
      <trkpt lat="48.53924" lon="2.01493">
        <ele>158</ele>
        <time>2018-02-22T13:52:50.011Z</time>
      </trkpt>
      <trkpt lat="48.53921" lon="2.01507">
        <ele>158</ele>
        <time>2018-02-22T13:52:57.009Z</time>
      </trkpt>
      <trkpt lat="48.53918" lon="2.0152">
        <ele>158</ele>
        <time>2018-02-22T13:53:07.011Z</time>
      </trkpt>
      <trkpt lat="48.53916" lon="2.01535">
        <ele>158</ele>
        <time>2018-02-22T13:53:14.009Z</time>
      </trkpt>
      <trkpt lat="48.53915" lon="2.01549">
        <ele>158</ele>
        <time>2018-02-22T13:53:22.009Z</time>
      </trkpt>
      <trkpt lat="48.53914" lon="2.01564">
        <ele>158</ele>
        <time>2018-02-22T13:53:28.007Z</time>
      </trkpt>
      <trkpt lat="48.53913" lon="2.01577">
        <ele>158</ele>
        <time>2018-02-22T13:53:38.011Z</time>
      </trkpt>
      <trkpt lat="48.53912" lon="2.01593">
        <ele>158</ele>
        <time>2018-02-22T13:53:45.007Z</time>
      </trkpt>
      <trkpt lat="48.53913" lon="2.01607">
        <ele>158</ele>
        <time>2018-02-22T13:53:51.979Z</time>
      </trkpt>
      <trkpt lat="48.53913" lon="2.01621">
        <ele>158</ele>
        <time>2018-02-22T13:53:59.010Z</time>
      </trkpt>
      <trkpt lat="48.53914" lon="2.01636">
        <ele>158</ele>
        <time>2018-02-22T13:54:07.007Z</time>
      </trkpt>
      <trkpt lat="48.53914" lon="2.0165">
        <ele>158</ele>
        <time>2018-02-22T13:54:13.007Z</time>
      </trkpt>
      <trkpt lat="48.53915" lon="2.01664">
        <ele>158</ele>
        <time>2018-02-22T13:54:21.011Z</time>
      </trkpt>
      <trkpt lat="48.53917" lon="2.0168">
        <ele>158</ele>
        <time>2018-02-22T13:54:29.008Z</time>
      </trkpt>
      <trkpt lat="48.53917" lon="2.01695">
        <ele>158</ele>
        <time>2018-02-22T13:54:34.007Z</time>
      </trkpt>
      <trkpt lat="48.53919" lon="2.0171">
        <ele>158</ele>
        <time>2018-02-22T13:54:41.011Z</time>
      </trkpt>
      <trkpt lat="48.53921" lon="2.01724">
        <ele>158</ele>
        <time>2018-02-22T13:54:54.007Z</time>
      </trkpt>
      <trkpt lat="48.5392" lon="2.01738">
        <ele>159</ele>
        <time>2018-02-22T13:55:01.011Z</time>
      </trkpt>
      <trkpt lat="48.5392" lon="2.01752">
        <ele>159</ele>
        <time>2018-02-22T13:55:10.011Z</time>
      </trkpt>
      <trkpt lat="48.53917" lon="2.01767">
        <ele>159</ele>
        <time>2018-02-22T13:55:17.010Z</time>
      </trkpt>
      <trkpt lat="48.53917" lon="2.01781">
        <ele>160</ele>
        <time>2018-02-22T13:55:26.009Z</time>
      </trkpt>
      <trkpt lat="48.53913" lon="2.01796">
        <ele>160</ele>
        <time>2018-02-22T13:55:33.011Z</time>
      </trkpt>
      <trkpt lat="48.53911" lon="2.01811">
        <ele>160</ele>
        <time>2018-02-22T13:55:42.008Z</time>
      </trkpt>
      <trkpt lat="48.53907" lon="2.01825">
        <ele>160</ele>
        <time>2018-02-22T13:55:51.007Z</time>
      </trkpt>
      <trkpt lat="48.53903" lon="2.01838">
        <ele>160</ele>
        <time>2018-02-22T13:55:59.008Z</time>
      </trkpt>
      <trkpt lat="48.53899" lon="2.01851">
        <ele>159</ele>
        <time>2018-02-22T13:56:08.009Z</time>
      </trkpt>
      <trkpt lat="48.53895" lon="2.01864">
        <ele>159</ele>
        <time>2018-02-22T13:56:17.012Z</time>
      </trkpt>
      <trkpt lat="48.53891" lon="2.01878">
        <ele>159</ele>
        <time>2018-02-22T13:56:24.012Z</time>
      </trkpt>
      <trkpt lat="48.53888" lon="2.01891">
        <ele>159</ele>
        <time>2018-02-22T13:56:31.008Z</time>
      </trkpt>
      <trkpt lat="48.53883" lon="2.01904">
        <ele>159</ele>
        <time>2018-02-22T13:56:40.008Z</time>
      </trkpt>
      <trkpt lat="48.53879" lon="2.01917">
        <ele>159</ele>
        <time>2018-02-22T13:56:46.008Z</time>
      </trkpt>
      <trkpt lat="48.53876" lon="2.0193">
        <ele>157</ele>
        <time>2018-02-22T13:56:55.008Z</time>
      </trkpt>
      <trkpt lat="48.53871" lon="2.01943">
        <ele>157</ele>
        <time>2018-02-22T13:57:01.035Z</time>
      </trkpt>
      <trkpt lat="48.53868" lon="2.01956">
        <ele>157</ele>
        <time>2018-02-22T13:57:11.009Z</time>
      </trkpt>
      <trkpt lat="48.53863" lon="2.01969">
        <ele>157</ele>
        <time>2018-02-22T13:57:18.004Z</time>
      </trkpt>
      <trkpt lat="48.53859" lon="2.01982">
        <ele>157</ele>
        <time>2018-02-22T13:57:28.008Z</time>
      </trkpt>
      <trkpt lat="48.53855" lon="2.01995">
        <ele>157</ele>
        <time>2018-02-22T13:57:35.011Z</time>
      </trkpt>
      <trkpt lat="48.53851" lon="2.02008">
        <ele>157</ele>
        <time>2018-02-22T13:57:43.008Z</time>
      </trkpt>
      <trkpt lat="48.53846" lon="2.02021">
        <ele>157</ele>
        <time>2018-02-22T13:57:49.008Z</time>
      </trkpt>
      <trkpt lat="48.53841" lon="2.02035">
        <ele>157</ele>
        <time>2018-02-22T13:57:59.008Z</time>
      </trkpt>
      <trkpt lat="48.53837" lon="2.02047">
        <ele>157</ele>
        <time>2018-02-22T13:58:04.009Z</time>
      </trkpt>
      <trkpt lat="48.53834" lon="2.02062">
        <ele>157</ele>
        <time>2018-02-22T13:58:14.009Z</time>
      </trkpt>
      <trkpt lat="48.53829" lon="2.02076">
        <ele>158</ele>
        <time>2018-02-22T13:58:20.008Z</time>
      </trkpt>
      <trkpt lat="48.53826" lon="2.02091">
        <ele>158</ele>
        <time>2018-02-22T13:58:31.008Z</time>
      </trkpt>
      <trkpt lat="48.53822" lon="2.02104">
        <ele>158</ele>
        <time>2018-02-22T13:58:36.009Z</time>
      </trkpt>
      <trkpt lat="48.53816" lon="2.02117">
        <ele>157</ele>
        <time>2018-02-22T13:58:46.009Z</time>
      </trkpt>
      <trkpt lat="48.53812" lon="2.02129">
        <ele>157</ele>
        <time>2018-02-22T13:58:52.007Z</time>
      </trkpt>
      <trkpt lat="48.53809" lon="2.02143">
        <ele>157</ele>
        <time>2018-02-22T13:59:01.008Z</time>
      </trkpt>
      <trkpt lat="48.53805" lon="2.02155">
        <ele>157</ele>
        <time>2018-02-22T13:59:08.008Z</time>
      </trkpt>
      <trkpt lat="48.538" lon="2.02167">
        <ele>157</ele>
        <time>2018-02-22T13:59:16.012Z</time>
      </trkpt>
      <trkpt lat="48.53796" lon="2.02181">
        <ele>157</ele>
        <time>2018-02-22T13:59:26.009Z</time>
      </trkpt>
      <trkpt lat="48.53794" lon="2.02195">
        <ele>157</ele>
        <time>2018-02-22T13:59:35.008Z</time>
      </trkpt>
      <trkpt lat="48.53791" lon="2.02208">
        <ele>157</ele>
        <time>2018-02-22T13:59:42.012Z</time>
      </trkpt>
      <trkpt lat="48.53789" lon="2.02222">
        <ele>157</ele>
        <time>2018-02-22T13:59:50.009Z</time>
      </trkpt>
      <trkpt lat="48.53785" lon="2.02236">
        <ele>157</ele>
        <time>2018-02-22T13:59:57.008Z</time>
      </trkpt>
      <trkpt lat="48.53781" lon="2.0225">
        <ele>157</ele>
        <time>2018-02-22T14:00:04.008Z</time>
      </trkpt>
      <trkpt lat="48.53778" lon="2.02263">
        <ele>156</ele>
        <time>2018-02-22T14:00:11.037Z</time>
      </trkpt>
      <trkpt lat="48.53775" lon="2.02276">
        <ele>156</ele>
        <time>2018-02-22T14:00:17.007Z</time>
      </trkpt>
      <trkpt lat="48.53773" lon="2.0229">
        <ele>156</ele>
        <time>2018-02-22T14:00:26.008Z</time>
      </trkpt>
      <trkpt lat="48.5377" lon="2.02304">
        <ele>156</ele>
        <time>2018-02-22T14:00:31.008Z</time>
      </trkpt>
      <trkpt lat="48.53767" lon="2.02319">
        <ele>156</ele>
        <time>2018-02-22T14:00:40.011Z</time>
      </trkpt>
      <trkpt lat="48.53763" lon="2.02333">
        <ele>155</ele>
        <time>2018-02-22T14:00:47.008Z</time>
      </trkpt>
      <trkpt lat="48.53759" lon="2.02347">
        <ele>155</ele>
        <time>2018-02-22T14:00:57.010Z</time>
      </trkpt>
      <trkpt lat="48.53756" lon="2.02361">
        <ele>155</ele>
        <time>2018-02-22T14:01:03.012Z</time>
      </trkpt>
      <trkpt lat="48.53753" lon="2.02375">
        <ele>155</ele>
        <time>2018-02-22T14:01:11.980Z</time>
      </trkpt>
      <trkpt lat="48.53749" lon="2.02389">
        <ele>156</ele>
        <time>2018-02-22T14:01:19.007Z</time>
      </trkpt>
      <trkpt lat="48.53747" lon="2.02403">
        <ele>156</ele>
        <time>2018-02-22T14:01:29.012Z</time>
      </trkpt>
      <trkpt lat="48.53743" lon="2.02416">
        <ele>156</ele>
        <time>2018-02-22T14:01:38.011Z</time>
      </trkpt>
      <trkpt lat="48.53739" lon="2.0243">
        <ele>156</ele>
        <time>2018-02-22T14:01:46.008Z</time>
      </trkpt>
      <trkpt lat="48.53737" lon="2.02444">
        <ele>155</ele>
        <time>2018-02-22T14:01:55.008Z</time>
      </trkpt>
      <trkpt lat="48.53737" lon="2.0246">
        <ele>155</ele>
        <time>2018-02-22T14:02:03.008Z</time>
      </trkpt>
      <trkpt lat="48.53741" lon="2.02473">
        <ele>155</ele>
        <time>2018-02-22T14:02:13.009Z</time>
      </trkpt>
      <trkpt lat="48.53747" lon="2.02486">
        <ele>155</ele>
        <time>2018-02-22T14:02:21.008Z</time>
      </trkpt>
      <trkpt lat="48.53753" lon="2.02496">
        <ele>154</ele>
        <time>2018-02-22T14:02:28.007Z</time>
      </trkpt>
      <trkpt lat="48.53759" lon="2.02509">
        <ele>154</ele>
        <time>2018-02-22T14:02:35.012Z</time>
      </trkpt>
      <trkpt lat="48.53765" lon="2.02521">
        <ele>154</ele>
        <time>2018-02-22T14:02:45.009Z</time>
      </trkpt>
      <trkpt lat="48.53771" lon="2.02533">
        <ele>154</ele>
        <time>2018-02-22T14:02:51.011Z</time>
      </trkpt>
      <trkpt lat="48.53778" lon="2.02546">
        <ele>154</ele>
        <time>2018-02-22T14:03:01.008Z</time>
      </trkpt>
      <trkpt lat="48.53784" lon="2.02557">
        <ele>154</ele>
        <time>2018-02-22T14:03:08.012Z</time>
      </trkpt>
      <trkpt lat="48.5379" lon="2.0257">
        <ele>154</ele>
        <time>2018-02-22T14:03:17.008Z</time>
      </trkpt>
      <trkpt lat="48.53796" lon="2.0258">
        <ele>154</ele>
        <time>2018-02-22T14:03:24.007Z</time>
      </trkpt>
      <trkpt lat="48.53802" lon="2.02592">
        <ele>153</ele>
        <time>2018-02-22T14:03:33.011Z</time>
      </trkpt>
      <trkpt lat="48.53809" lon="2.02602">
        <ele>153</ele>
        <time>2018-02-22T14:03:42.012Z</time>
      </trkpt>
      <trkpt lat="48.53815" lon="2.02614">
        <ele>153</ele>
        <time>2018-02-22T14:03:48.011Z</time>
      </trkpt>
      <trkpt lat="48.5382" lon="2.02625">
        <ele>153</ele>
        <time>2018-02-22T14:03:57.007Z</time>
      </trkpt>
      <trkpt lat="48.53827" lon="2.02638">
        <ele>153</ele>
        <time>2018-02-22T14:04:03.007Z</time>
      </trkpt>
      <trkpt lat="48.53834" lon="2.02647">
        <ele>153</ele>
        <time>2018-02-22T14:04:11.008Z</time>
      </trkpt>
      <trkpt lat="48.53841" lon="2.02658">
        <ele>153</ele>
        <time>2018-02-22T14:04:19.010Z</time>
      </trkpt>
      <trkpt lat="48.53848" lon="2.02669">
        <ele>153</ele>
        <time>2018-02-22T14:04:29.010Z</time>
      </trkpt>
      <trkpt lat="48.53853" lon="2.0268">
        <ele>153</ele>
        <time>2018-02-22T14:04:35.009Z</time>
      </trkpt>
      <trkpt lat="48.53861" lon="2.02691">
        <ele>153</ele>
        <time>2018-02-22T14:04:45.010Z</time>
      </trkpt>
      <trkpt lat="48.53866" lon="2.02703">
        <ele>153</ele>
        <time>2018-02-22T14:04:51.008Z</time>
      </trkpt>
      <trkpt lat="48.53872" lon="2.02715">
        <ele>153</ele>
        <time>2018-02-22T14:05:01.037Z</time>
      </trkpt>
      <trkpt lat="48.53878" lon="2.02728">
        <ele>152</ele>
        <time>2018-02-22T14:05:07.008Z</time>
      </trkpt>
      <trkpt lat="48.53884" lon="2.02739">
        <ele>152</ele>
        <time>2018-02-22T14:05:14.008Z</time>
      </trkpt>
      <trkpt lat="48.53891" lon="2.0275">
        <ele>152</ele>
        <time>2018-02-22T14:05:22.012Z</time>
      </trkpt>
      <trkpt lat="48.53896" lon="2.02761">
        <ele>152</ele>
        <time>2018-02-22T14:05:28.013Z</time>
      </trkpt>
      <trkpt lat="48.53902" lon="2.02774">
        <ele>152</ele>
        <time>2018-02-22T14:05:38.008Z</time>
      </trkpt>
      <trkpt lat="48.53908" lon="2.02786">
        <ele>152</ele>
        <time>2018-02-22T14:05:44.013Z</time>
      </trkpt>
      <trkpt lat="48.53915" lon="2.02797">
        <ele>152</ele>
        <time>2018-02-22T14:05:55.011Z</time>
      </trkpt>
      <trkpt lat="48.53921" lon="2.02808">
        <ele>151</ele>
        <time>2018-02-22T14:06:00.009Z</time>
      </trkpt>
      <trkpt lat="48.53927" lon="2.02818">
        <ele>151</ele>
        <time>2018-02-22T14:06:08.008Z</time>
      </trkpt>
      <trkpt lat="48.53933" lon="2.0283">
        <ele>151</ele>
        <time>2018-02-22T14:06:16.009Z</time>
      </trkpt>
      <trkpt lat="48.53939" lon="2.02842">
        <ele>150</ele>
        <time>2018-02-22T14:06:22.008Z</time>
      </trkpt>
      <trkpt lat="48.53946" lon="2.02854">
        <ele>150</ele>
        <time>2018-02-22T14:06:31.033Z</time>
      </trkpt>
      <trkpt lat="48.53952" lon="2.02865">
        <ele>150</ele>
        <time>2018-02-22T14:06:38.013Z</time>
      </trkpt>
      <trkpt lat="48.53957" lon="2.02876">
        <ele>150</ele>
        <time>2018-02-22T14:06:46.008Z</time>
      </trkpt>
      <trkpt lat="48.53962" lon="2.02889">
        <ele>149</ele>
        <time>2018-02-22T14:06:54.010Z</time>
      </trkpt>
      <trkpt lat="48.53968" lon="2.029">
        <ele>149</ele>
        <time>2018-02-22T14:07:03.012Z</time>
      </trkpt>
      <trkpt lat="48.53973" lon="2.02912">
        <ele>149</ele>
        <time>2018-02-22T14:07:13.009Z</time>
      </trkpt>
      <trkpt lat="48.5398" lon="2.02922">
        <ele>148</ele>
        <time>2018-02-22T14:07:22.009Z</time>
      </trkpt>
      <trkpt lat="48.53986" lon="2.02933">
        <ele>148</ele>
        <time>2018-02-22T14:07:29.010Z</time>
      </trkpt>
      <trkpt lat="48.53992" lon="2.02943">
        <ele>148</ele>
        <time>2018-02-22T14:07:36.010Z</time>
      </trkpt>
      <trkpt lat="48.53999" lon="2.02955">
        <ele>148</ele>
        <time>2018-02-22T14:07:44.010Z</time>
      </trkpt>
      <trkpt lat="48.54004" lon="2.02968">
        <ele>148</ele>
        <time>2018-02-22T14:07:50.009Z</time>
      </trkpt>
      <trkpt lat="48.54009" lon="2.0298">
        <ele>148</ele>
        <time>2018-02-22T14:08:00.013Z</time>
      </trkpt>
      <trkpt lat="48.54015" lon="2.0299">
        <ele>148</ele>
        <time>2018-02-22T14:08:06.009Z</time>
      </trkpt>
      <trkpt lat="48.54022" lon="2.03">
        <ele>147</ele>
        <time>2018-02-22T14:08:15.008Z</time>
      </trkpt>
      <trkpt lat="48.54028" lon="2.03011">
        <ele>148</ele>
        <time>2018-02-22T14:08:21.009Z</time>
      </trkpt>
      <trkpt lat="48.54034" lon="2.03023">
        <ele>148</ele>
        <time>2018-02-22T14:08:29.008Z</time>
      </trkpt>
      <trkpt lat="48.54039" lon="2.03034">
        <ele>148</ele>
        <time>2018-02-22T14:08:36.009Z</time>
      </trkpt>
      <trkpt lat="48.54045" lon="2.03045">
        <ele>147</ele>
        <time>2018-02-22T14:08:43.012Z</time>
      </trkpt>
      <trkpt lat="48.54051" lon="2.03057">
        <ele>147</ele>
        <time>2018-02-22T14:08:52.009Z</time>
      </trkpt>
      <trkpt lat="48.54056" lon="2.03069">
        <ele>147</ele>
        <time>2018-02-22T14:08:59.008Z</time>
      </trkpt>
      <trkpt lat="48.54063" lon="2.0308">
        <ele>147</ele>
        <time>2018-02-22T14:09:08.009Z</time>
      </trkpt>
      <trkpt lat="48.54068" lon="2.03092">
        <ele>147</ele>
        <time>2018-02-22T14:09:15.009Z</time>
      </trkpt>
      <trkpt lat="48.54073" lon="2.03106">
        <ele>147</ele>
        <time>2018-02-22T14:09:24.009Z</time>
      </trkpt>
      <trkpt lat="48.54077" lon="2.03119">
        <ele>147</ele>
        <time>2018-02-22T14:09:31.009Z</time>
      </trkpt>
      <trkpt lat="48.54081" lon="2.03135">
        <ele>146</ele>
        <time>2018-02-22T14:09:41.035Z</time>
      </trkpt>
      <trkpt lat="48.54084" lon="2.03148">
        <ele>146</ele>
        <time>2018-02-22T14:09:47.009Z</time>
      </trkpt>
      <trkpt lat="48.54089" lon="2.03162">
        <ele>146</ele>
        <time>2018-02-22T14:09:56.009Z</time>
      </trkpt>
      <trkpt lat="48.54092" lon="2.03176">
        <ele>146</ele>
        <time>2018-02-22T14:10:05.009Z</time>
      </trkpt>
      <trkpt lat="48.54094" lon="2.0319">
        <ele>145</ele>
        <time>2018-02-22T14:10:12.013Z</time>
      </trkpt>
      <trkpt lat="48.54097" lon="2.03203">
        <ele>145</ele>
        <time>2018-02-22T14:10:23.009Z</time>
      </trkpt>
      <trkpt lat="48.54091" lon="2.03214">
        <ele>145</ele>
        <time>2018-02-22T14:10:30.008Z</time>
      </trkpt>
      <trkpt lat="48.54087" lon="2.03227">
        <ele>145</ele>
        <time>2018-02-22T14:10:40.008Z</time>
      </trkpt>
      <trkpt lat="48.54087" lon="2.03242">
        <ele>145</ele>
        <time>2018-02-22T14:10:51.984Z</time>
      </trkpt>
      <trkpt lat="48.54082" lon="2.03254">
        <ele>145</ele>
        <time>2018-02-22T14:11:02.011Z</time>
      </trkpt>
      <trkpt lat="48.5408" lon="2.03268">
        <ele>145</ele>
        <time>2018-02-22T14:11:15.008Z</time>
      </trkpt>
      <trkpt lat="48.54075" lon="2.0328">
        <ele>146</ele>
        <time>2018-02-22T14:11:23.007Z</time>
      </trkpt>
      <trkpt lat="48.5407" lon="2.03294">
        <ele>146</ele>
        <time>2018-02-22T14:11:33.011Z</time>
      </trkpt>
      <trkpt lat="48.54069" lon="2.03309">
        <ele>146</ele>
        <time>2018-02-22T14:11:42.007Z</time>
      </trkpt>
      <trkpt lat="48.54069" lon="2.03323">
        <ele>146</ele>
        <time>2018-02-22T14:11:48.008Z</time>
      </trkpt>
      <trkpt lat="48.54068" lon="2.03338">
        <ele>145</ele>
        <time>2018-02-22T14:11:57.009Z</time>
      </trkpt>
      <trkpt lat="48.54065" lon="2.03351">
        <ele>146</ele>
        <time>2018-02-22T14:12:05.008Z</time>
      </trkpt>
      <trkpt lat="48.5406" lon="2.03364">
        <ele>146</ele>
        <time>2018-02-22T14:12:11.037Z</time>
      </trkpt>
      <trkpt lat="48.54056" lon="2.03379">
        <ele>146</ele>
        <time>2018-02-22T14:12:20.008Z</time>
      </trkpt>
      <trkpt lat="48.54052" lon="2.03391">
        <ele>146</ele>
        <time>2018-02-22T14:12:28.008Z</time>
      </trkpt>
      <trkpt lat="48.54047" lon="2.03402">
        <ele>146</ele>
        <time>2018-02-22T14:12:35.005Z</time>
      </trkpt>
      <trkpt lat="48.54043" lon="2.03417">
        <ele>146</ele>
        <time>2018-02-22T14:12:43.009Z</time>
      </trkpt>
      <trkpt lat="48.54039" lon="2.03429">
        <ele>146</ele>
        <time>2018-02-22T14:12:51.979Z</time>
      </trkpt>
      <trkpt lat="48.54035" lon="2.03443">
        <ele>146</ele>
        <time>2018-02-22T14:12:58.010Z</time>
      </trkpt>
      <trkpt lat="48.5403" lon="2.03459">
        <ele>146</ele>
        <time>2018-02-22T14:13:08.009Z</time>
      </trkpt>
      <trkpt lat="48.54026" lon="2.03474">
        <ele>146</ele>
        <time>2018-02-22T14:13:14.009Z</time>
      </trkpt>
      <trkpt lat="48.54024" lon="2.03488">
        <ele>146</ele>
        <time>2018-02-22T14:13:20.009Z</time>
      </trkpt>
      <trkpt lat="48.54021" lon="2.03501">
        <ele>147</ele>
        <time>2018-02-22T14:13:27.009Z</time>
      </trkpt>
      <trkpt lat="48.5402" lon="2.03518">
        <ele>147</ele>
        <time>2018-02-22T14:13:34.009Z</time>
      </trkpt>
      <trkpt lat="48.54018" lon="2.03531">
        <ele>147</ele>
        <time>2018-02-22T14:13:40.010Z</time>
      </trkpt>
      <trkpt lat="48.54015" lon="2.03544">
        <ele>147</ele>
        <time>2018-02-22T14:13:47.009Z</time>
      </trkpt>
      <trkpt lat="48.54012" lon="2.03557">
        <ele>147</ele>
        <time>2018-02-22T14:13:57.009Z</time>
      </trkpt>
      <trkpt lat="48.54007" lon="2.0357">
        <ele>148</ele>
        <time>2018-02-22T14:14:03.012Z</time>
      </trkpt>
      <trkpt lat="48.54004" lon="2.03583">
        <ele>148</ele>
        <time>2018-02-22T14:14:12.009Z</time>
      </trkpt>
      <trkpt lat="48.54001" lon="2.03597">
        <ele>148</ele>
        <time>2018-02-22T14:14:21.009Z</time>
      </trkpt>
      <trkpt lat="48.53997" lon="2.03611">
        <ele>149</ele>
        <time>2018-02-22T14:14:30.008Z</time>
      </trkpt>
      <trkpt lat="48.53994" lon="2.03624">
        <ele>149</ele>
        <time>2018-02-22T14:14:38.009Z</time>
      </trkpt>
      <trkpt lat="48.53991" lon="2.03638">
        <ele>149</ele>
        <time>2018-02-22T14:14:45.009Z</time>
      </trkpt>
      <trkpt lat="48.53988" lon="2.03652">
        <ele>149</ele>
        <time>2018-02-22T14:14:55.009Z</time>
      </trkpt>
      <trkpt lat="48.53984" lon="2.03665">
        <ele>149</ele>
        <time>2018-02-22T14:15:03.010Z</time>
      </trkpt>
      <trkpt lat="48.5398" lon="2.03678">
        <ele>149</ele>
        <time>2018-02-22T14:15:10.010Z</time>
      </trkpt>
      <trkpt lat="48.53976" lon="2.03692">
        <ele>149</ele>
        <time>2018-02-22T14:15:21.037Z</time>
      </trkpt>
      <trkpt lat="48.53971" lon="2.03706">
        <ele>149</ele>
        <time>2018-02-22T14:15:31.005Z</time>
      </trkpt>
      <trkpt lat="48.53967" lon="2.03719">
        <ele>149</ele>
        <time>2018-02-22T14:15:39.009Z</time>
      </trkpt>
      <trkpt lat="48.53962" lon="2.03734">
        <ele>149</ele>
        <time>2018-02-22T14:15:47.010Z</time>
      </trkpt>
      <trkpt lat="48.53959" lon="2.03747">
        <ele>149</ele>
        <time>2018-02-22T14:15:55.009Z</time>
      </trkpt>
      <trkpt lat="48.53956" lon="2.0376">
        <ele>150</ele>
        <time>2018-02-22T14:16:04.005Z</time>
      </trkpt>
      <trkpt lat="48.53952" lon="2.03773">
        <ele>150</ele>
        <time>2018-02-22T14:16:12.009Z</time>
      </trkpt>
      <trkpt lat="48.53947" lon="2.03785">
        <ele>150</ele>
        <time>2018-02-22T14:16:19.009Z</time>
      </trkpt>
      <trkpt lat="48.53943" lon="2.03798">
        <ele>150</ele>
        <time>2018-02-22T14:16:28.009Z</time>
      </trkpt>
      <trkpt lat="48.53939" lon="2.0381">
        <ele>150</ele>
        <time>2018-02-22T14:16:34.010Z</time>
      </trkpt>
      <trkpt lat="48.53935" lon="2.03823">
        <ele>150</ele>
        <time>2018-02-22T14:16:44.010Z</time>
      </trkpt>
      <trkpt lat="48.5393" lon="2.03837">
        <ele>150</ele>
        <time>2018-02-22T14:16:52.005Z</time>
      </trkpt>
      <trkpt lat="48.53927" lon="2.0385">
        <ele>150</ele>
        <time>2018-02-22T14:16:59.009Z</time>
      </trkpt>
      <trkpt lat="48.53923" lon="2.03863">
        <ele>150</ele>
        <time>2018-02-22T14:17:06.009Z</time>
      </trkpt>
      <trkpt lat="48.53919" lon="2.03875">
        <ele>150</ele>
        <time>2018-02-22T14:17:14.010Z</time>
      </trkpt>
      <trkpt lat="48.53914" lon="2.03888">
        <ele>150</ele>
        <time>2018-02-22T14:17:21.009Z</time>
      </trkpt>
      <trkpt lat="48.5391" lon="2.03902">
        <ele>149</ele>
        <time>2018-02-22T14:17:30.009Z</time>
      </trkpt>
      <trkpt lat="48.53907" lon="2.03916">
        <ele>149</ele>
        <time>2018-02-22T14:17:39.009Z</time>
      </trkpt>
      <trkpt lat="48.53903" lon="2.0393">
        <ele>149</ele>
        <time>2018-02-22T14:17:45.005Z</time>
      </trkpt>
      <trkpt lat="48.539" lon="2.03943">
        <ele>149</ele>
        <time>2018-02-22T14:17:54.006Z</time>
      </trkpt>
      <trkpt lat="48.53897" lon="2.03957">
        <ele>149</ele>
        <time>2018-02-22T14:18:01.010Z</time>
      </trkpt>
      <trkpt lat="48.53892" lon="2.03971">
        <ele>149</ele>
        <time>2018-02-22T14:18:10.009Z</time>
      </trkpt>
      <trkpt lat="48.53888" lon="2.03984">
        <ele>149</ele>
        <time>2018-02-22T14:18:19.009Z</time>
      </trkpt>
      <trkpt lat="48.53886" lon="2.03997">
        <ele>149</ele>
        <time>2018-02-22T14:18:32.042Z</time>
      </trkpt>
      <trkpt lat="48.5389" lon="2.0401">
        <ele>150</ele>
        <time>2018-02-22T14:19:12.979Z</time>
      </trkpt>
      <trkpt lat="48.53895" lon="2.04022">
        <ele>150</ele>
        <time>2018-02-22T14:19:23.007Z</time>
      </trkpt>
      <trkpt lat="48.53902" lon="2.04034">
        <ele>150</ele>
        <time>2018-02-22T14:19:32.983Z</time>
      </trkpt>
      <trkpt lat="48.5391" lon="2.04044">
        <ele>150</ele>
        <time>2018-02-22T14:19:42.008Z</time>
      </trkpt>
      <trkpt lat="48.53918" lon="2.04053">
        <ele>150</ele>
        <time>2018-02-22T14:19:50.009Z</time>
      </trkpt>
      <trkpt lat="48.53926" lon="2.04061">
        <ele>151</ele>
        <time>2018-02-22T14:19:56.009Z</time>
      </trkpt>
      <trkpt lat="48.53933" lon="2.04069">
        <ele>151</ele>
        <time>2018-02-22T14:20:02.007Z</time>
      </trkpt>
      <trkpt lat="48.53941" lon="2.04077">
        <ele>150</ele>
        <time>2018-02-22T14:20:10.009Z</time>
      </trkpt>
      <trkpt lat="48.53948" lon="2.04085">
        <ele>151</ele>
        <time>2018-02-22T14:20:17.010Z</time>
      </trkpt>
      <trkpt lat="48.53956" lon="2.04093">
        <ele>151</ele>
        <time>2018-02-22T14:20:26.010Z</time>
      </trkpt>
      <trkpt lat="48.53963" lon="2.04103">
        <ele>150</ele>
        <time>2018-02-22T14:20:34.009Z</time>
      </trkpt>
      <trkpt lat="48.5397" lon="2.04113">
        <ele>150</ele>
        <time>2018-02-22T14:20:43.010Z</time>
      </trkpt>
      <trkpt lat="48.53978" lon="2.04123">
        <ele>150</ele>
        <time>2018-02-22T14:20:52.010Z</time>
      </trkpt>
      <trkpt lat="48.53985" lon="2.04131">
        <ele>151</ele>
        <time>2018-02-22T14:21:00.009Z</time>
      </trkpt>
      <trkpt lat="48.53993" lon="2.0414">
        <ele>151</ele>
        <time>2018-02-22T14:21:06.007Z</time>
      </trkpt>
      <trkpt lat="48.54001" lon="2.04147">
        <ele>151</ele>
        <time>2018-02-22T14:21:15.010Z</time>
      </trkpt>
      <trkpt lat="48.54008" lon="2.04156">
        <ele>151</ele>
        <time>2018-02-22T14:21:24.009Z</time>
      </trkpt>
      <trkpt lat="48.54015" lon="2.04165">
        <ele>151</ele>
        <time>2018-02-22T14:21:33.006Z</time>
      </trkpt>
      <trkpt lat="48.54021" lon="2.04176">
        <ele>152</ele>
        <time>2018-02-22T14:21:42.978Z</time>
      </trkpt>
      <trkpt lat="48.54028" lon="2.04187">
        <ele>152</ele>
        <time>2018-02-22T14:21:53.010Z</time>
      </trkpt>
      <trkpt lat="48.54034" lon="2.04198">
        <ele>152</ele>
        <time>2018-02-22T14:22:05.010Z</time>
      </trkpt>
      <trkpt lat="48.54045" lon="2.04199">
        <ele>153</ele>
        <time>2018-02-22T14:22:10.009Z</time>
      </trkpt>
      <trkpt lat="48.54054" lon="2.04201">
        <ele>153</ele>
        <time>2018-02-22T14:22:13.009Z</time>
      </trkpt>
      <trkpt lat="48.5406" lon="2.04214">
        <ele>153</ele>
        <time>2018-02-22T14:22:22.034Z</time>
      </trkpt>
      <trkpt lat="48.54066" lon="2.04224">
        <ele>153</ele>
        <time>2018-02-22T14:22:31.011Z</time>
      </trkpt>
      <trkpt lat="48.54073" lon="2.04235">
        <ele>153</ele>
        <time>2018-02-22T14:22:44.009Z</time>
      </trkpt>
      <trkpt lat="48.54081" lon="2.04243">
        <ele>154</ele>
        <time>2018-02-22T14:22:54.011Z</time>
      </trkpt>
      <trkpt lat="48.54086" lon="2.04255">
        <ele>154</ele>
        <time>2018-02-22T14:23:04.009Z</time>
      </trkpt>
      <trkpt lat="48.54085" lon="2.04269">
        <ele>154</ele>
        <time>2018-02-22T14:23:15.009Z</time>
      </trkpt>
      <trkpt lat="48.54078" lon="2.04279">
        <ele>153</ele>
        <time>2018-02-22T14:23:24.009Z</time>
      </trkpt>
      <trkpt lat="48.54073" lon="2.04292">
        <ele>152</ele>
        <time>2018-02-22T14:23:38.007Z</time>
      </trkpt>
      <trkpt lat="48.54064" lon="2.04298">
        <ele>152</ele>
        <time>2018-02-22T14:23:45.009Z</time>
      </trkpt>
      <trkpt lat="48.54056" lon="2.04308">
        <ele>152</ele>
        <time>2018-02-22T14:23:55.009Z</time>
      </trkpt>
      <trkpt lat="48.54048" lon="2.04317">
        <ele>152</ele>
        <time>2018-02-22T14:24:04.010Z</time>
      </trkpt>
      <trkpt lat="48.5404" lon="2.04324">
        <ele>152</ele>
        <time>2018-02-22T14:24:12.009Z</time>
      </trkpt>
      <trkpt lat="48.54032" lon="2.04333">
        <ele>152</ele>
        <time>2018-02-22T14:24:21.010Z</time>
      </trkpt>
      <trkpt lat="48.54024" lon="2.04342">
        <ele>152</ele>
        <time>2018-02-22T14:24:30.011Z</time>
      </trkpt>
      <trkpt lat="48.54016" lon="2.04349">
        <ele>151</ele>
        <time>2018-02-22T14:24:37.009Z</time>
      </trkpt>
      <trkpt lat="48.54008" lon="2.04357">
        <ele>152</ele>
        <time>2018-02-22T14:24:46.011Z</time>
      </trkpt>
      <trkpt lat="48.54001" lon="2.04366">
        <ele>152</ele>
        <time>2018-02-22T14:24:56.007Z</time>
      </trkpt>
      <trkpt lat="48.53993" lon="2.04374">
        <ele>151</ele>
        <time>2018-02-22T14:25:04.009Z</time>
      </trkpt>
      <trkpt lat="48.53984" lon="2.04383">
        <ele>151</ele>
        <time>2018-02-22T14:25:11.011Z</time>
      </trkpt>
      <trkpt lat="48.53976" lon="2.04393">
        <ele>151</ele>
        <time>2018-02-22T14:25:19.009Z</time>
      </trkpt>
      <trkpt lat="48.53968" lon="2.04401">
        <ele>151</ele>
        <time>2018-02-22T14:25:28.010Z</time>
      </trkpt>
      <trkpt lat="48.53961" lon="2.0441">
        <ele>151</ele>
        <time>2018-02-22T14:25:58.009Z</time>
      </trkpt>
      <trkpt lat="48.53953" lon="2.04417">
        <ele>151</ele>
        <time>2018-02-22T14:26:08.009Z</time>
      </trkpt>
      <trkpt lat="48.53945" lon="2.04424">
        <ele>150</ele>
        <time>2018-02-22T14:26:15.009Z</time>
      </trkpt>
      <trkpt lat="48.53938" lon="2.04432">
        <ele>150</ele>
        <time>2018-02-22T14:26:23.010Z</time>
      </trkpt>
      <trkpt lat="48.53929" lon="2.04439">
        <ele>150</ele>
        <time>2018-02-22T14:26:30.010Z</time>
      </trkpt>
      <trkpt lat="48.53921" lon="2.04447">
        <ele>150</ele>
        <time>2018-02-22T14:26:39.013Z</time>
      </trkpt>
      <trkpt lat="48.53913" lon="2.04456">
        <ele>149</ele>
        <time>2018-02-22T14:26:49.007Z</time>
      </trkpt>
      <trkpt lat="48.53905" lon="2.04464">
        <ele>149</ele>
        <time>2018-02-22T14:26:57.010Z</time>
      </trkpt>
      <trkpt lat="48.53898" lon="2.04471">
        <ele>149</ele>
        <time>2018-02-22T14:27:05.009Z</time>
      </trkpt>
      <trkpt lat="48.53889" lon="2.04479">
        <ele>149</ele>
        <time>2018-02-22T14:27:15.005Z</time>
      </trkpt>
      <trkpt lat="48.53882" lon="2.04487">
        <ele>149</ele>
        <time>2018-02-22T14:27:24.010Z</time>
      </trkpt>
      <trkpt lat="48.53874" lon="2.04496">
        <ele>149</ele>
        <time>2018-02-22T14:27:34.010Z</time>
      </trkpt>
      <trkpt lat="48.53865" lon="2.04504">
        <ele>149</ele>
        <time>2018-02-22T14:27:40.009Z</time>
      </trkpt>
      <trkpt lat="48.53858" lon="2.04512">
        <ele>149</ele>
        <time>2018-02-22T14:27:49.010Z</time>
      </trkpt>
      <trkpt lat="48.5385" lon="2.04519">
        <ele>149</ele>
        <time>2018-02-22T14:27:55.008Z</time>
      </trkpt>
      <trkpt lat="48.53842" lon="2.04526">
        <ele>149</ele>
        <time>2018-02-22T14:28:02.033Z</time>
      </trkpt>
      <trkpt lat="48.53833" lon="2.04534">
        <ele>149</ele>
        <time>2018-02-22T14:28:12.006Z</time>
      </trkpt>
      <trkpt lat="48.53826" lon="2.04543">
        <ele>149</ele>
        <time>2018-02-22T14:28:20.013Z</time>
      </trkpt>
      <trkpt lat="48.53817" lon="2.04551">
        <ele>149</ele>
        <time>2018-02-22T14:28:27.009Z</time>
      </trkpt>
      <trkpt lat="48.5381" lon="2.04561">
        <ele>149</ele>
        <time>2018-02-22T14:28:36.009Z</time>
      </trkpt>
      <trkpt lat="48.53801" lon="2.04569">
        <ele>149</ele>
        <time>2018-02-22T14:28:42.982Z</time>
      </trkpt>
      <trkpt lat="48.53794" lon="2.04576">
        <ele>148</ele>
        <time>2018-02-22T14:28:52.010Z</time>
      </trkpt>
      <trkpt lat="48.53786" lon="2.04584">
        <ele>148</ele>
        <time>2018-02-22T14:28:58.007Z</time>
      </trkpt>
      <trkpt lat="48.53778" lon="2.04592">
        <ele>148</ele>
        <time>2018-02-22T14:29:09.007Z</time>
      </trkpt>
      <trkpt lat="48.5377" lon="2.04599">
        <ele>148</ele>
        <time>2018-02-22T14:29:14.009Z</time>
      </trkpt>
      <trkpt lat="48.53762" lon="2.04608">
        <ele>148</ele>
        <time>2018-02-22T14:29:24.006Z</time>
      </trkpt>
      <trkpt lat="48.53754" lon="2.04616">
        <ele>148</ele>
        <time>2018-02-22T14:29:30.009Z</time>
      </trkpt>
      <trkpt lat="48.53749" lon="2.04627">
        <ele>148</ele>
        <time>2018-02-22T14:29:38.010Z</time>
      </trkpt>
      <trkpt lat="48.53742" lon="2.04636">
        <ele>148</ele>
        <time>2018-02-22T14:29:45.010Z</time>
      </trkpt>
      <trkpt lat="48.53735" lon="2.04646">
        <ele>148</ele>
        <time>2018-02-22T14:29:53.010Z</time>
      </trkpt>
      <trkpt lat="48.53728" lon="2.04657">
        <ele>148</ele>
        <time>2018-02-22T14:30:02.009Z</time>
      </trkpt>
      <trkpt lat="48.53722" lon="2.04668">
        <ele>148</ele>
        <time>2018-02-22T14:30:09.009Z</time>
      </trkpt>
      <trkpt lat="48.53717" lon="2.04679">
        <ele>148</ele>
        <time>2018-02-22T14:30:17.010Z</time>
      </trkpt>
      <trkpt lat="48.53711" lon="2.0469">
        <ele>148</ele>
        <time>2018-02-22T14:30:26.010Z</time>
      </trkpt>
      <trkpt lat="48.53706" lon="2.04702">
        <ele>148</ele>
        <time>2018-02-22T14:30:35.009Z</time>
      </trkpt>
      <trkpt lat="48.53702" lon="2.04715">
        <ele>148</ele>
        <time>2018-02-22T14:30:46.011Z</time>
      </trkpt>
      <trkpt lat="48.53698" lon="2.04727">
        <ele>148</ele>
        <time>2018-02-22T14:30:59.010Z</time>
      </trkpt>
      <trkpt lat="48.53692" lon="2.04739">
        <ele>148</ele>
        <time>2018-02-22T14:31:08.006Z</time>
      </trkpt>
      <trkpt lat="48.53686" lon="2.0475">
        <ele>147</ele>
        <time>2018-02-22T14:31:17.007Z</time>
      </trkpt>
      <trkpt lat="48.53682" lon="2.04762">
        <ele>147</ele>
        <time>2018-02-22T14:31:23.006Z</time>
      </trkpt>
      <trkpt lat="48.53679" lon="2.04777">
        <ele>147</ele>
        <time>2018-02-22T14:31:31.009Z</time>
      </trkpt>
      <trkpt lat="48.53674" lon="2.04791">
        <ele>147</ele>
        <time>2018-02-22T14:31:41.009Z</time>
      </trkpt>
      <trkpt lat="48.53672" lon="2.04805">
        <ele>147</ele>
        <time>2018-02-22T14:31:52.038Z</time>
      </trkpt>
      <trkpt lat="48.53668" lon="2.0482">
        <ele>146</ele>
        <time>2018-02-22T14:32:09.009Z</time>
      </trkpt>
      <trkpt lat="48.53664" lon="2.04834">
        <ele>146</ele>
        <time>2018-02-22T14:32:15.006Z</time>
      </trkpt>
      <trkpt lat="48.53661" lon="2.04847">
        <ele>145</ele>
        <time>2018-02-22T14:32:21.006Z</time>
      </trkpt>
      <trkpt lat="48.53656" lon="2.04861">
        <ele>144</ele>
        <time>2018-02-22T14:32:29.009Z</time>
      </trkpt>
      <trkpt lat="48.53651" lon="2.04873">
        <ele>144</ele>
        <time>2018-02-22T14:32:38.010Z</time>
      </trkpt>
      <trkpt lat="48.53645" lon="2.04885">
        <ele>144</ele>
        <time>2018-02-22T14:32:46.010Z</time>
      </trkpt>
      <trkpt lat="48.5364" lon="2.04897">
        <ele>144</ele>
        <time>2018-02-22T14:32:54.010Z</time>
      </trkpt>
      <trkpt lat="48.53635" lon="2.04908">
        <ele>144</ele>
        <time>2018-02-22T14:33:04.011Z</time>
      </trkpt>
      <trkpt lat="48.53628" lon="2.04918">
        <ele>143</ele>
        <time>2018-02-22T14:33:15.007Z</time>
      </trkpt>
      <trkpt lat="48.53622" lon="2.04929">
        <ele>143</ele>
        <time>2018-02-22T14:33:23.010Z</time>
      </trkpt>
      <trkpt lat="48.53616" lon="2.04941">
        <ele>143</ele>
        <time>2018-02-22T14:33:32.009Z</time>
      </trkpt>
      <trkpt lat="48.53613" lon="2.04953">
        <ele>143</ele>
        <time>2018-02-22T14:33:48.010Z</time>
      </trkpt>
      <trkpt lat="48.53609" lon="2.04966">
        <ele>142</ele>
        <time>2018-02-22T14:34:02.007Z</time>
      </trkpt>
      <trkpt lat="48.53602" lon="2.04974">
        <ele>142</ele>
        <time>2018-02-22T14:34:16.008Z</time>
      </trkpt>
      <trkpt lat="48.53594" lon="2.04982">
        <ele>142</ele>
        <time>2018-02-22T14:34:32.007Z</time>
      </trkpt>
      <trkpt lat="48.53587" lon="2.04992">
        <ele>142</ele>
        <time>2018-02-22T14:34:48.010Z</time>
      </trkpt>
      <trkpt lat="48.53579" lon="2.04999">
        <ele>140</ele>
        <time>2018-02-22T14:34:57.008Z</time>
      </trkpt>
      <trkpt lat="48.5357" lon="2.05003">
        <ele>139</ele>
        <time>2018-02-22T14:35:06.009Z</time>
      </trkpt>
      <trkpt lat="48.5356" lon="2.05008">
        <ele>138</ele>
        <time>2018-02-22T14:35:14.010Z</time>
      </trkpt>
      <trkpt lat="48.53553" lon="2.05016">
        <ele>137</ele>
        <time>2018-02-22T14:35:24.010Z</time>
      </trkpt>
      <trkpt lat="48.53544" lon="2.0502">
        <ele>137</ele>
        <time>2018-02-22T14:35:31.010Z</time>
      </trkpt>
      <trkpt lat="48.53535" lon="2.05021">
        <ele>136</ele>
        <time>2018-02-22T14:35:42.036Z</time>
      </trkpt>
      <trkpt lat="48.53525" lon="2.05022">
        <ele>135</ele>
        <time>2018-02-22T14:35:58.011Z</time>
      </trkpt>
      <trkpt lat="48.53516" lon="2.0502">
        <ele>135</ele>
        <time>2018-02-22T14:36:07.010Z</time>
      </trkpt>
      <trkpt lat="48.53507" lon="2.05014">
        <ele>133</ele>
        <time>2018-02-22T14:36:21.011Z</time>
      </trkpt>
      <trkpt lat="48.53501" lon="2.05004">
        <ele>132</ele>
        <time>2018-02-22T14:36:34.010Z</time>
      </trkpt>
      <trkpt lat="48.53494" lon="2.04993">
        <ele>129</ele>
        <time>2018-02-22T14:36:46.012Z</time>
      </trkpt>
      <trkpt lat="48.5349" lon="2.0498">
        <ele>127</ele>
        <time>2018-02-22T14:37:03.006Z</time>
      </trkpt>
      <trkpt lat="48.53486" lon="2.04966">
        <ele>126</ele>
        <time>2018-02-22T14:37:14.007Z</time>
      </trkpt>
      <trkpt lat="48.53482" lon="2.04953">
        <ele>126</ele>
        <time>2018-02-22T14:37:20.007Z</time>
      </trkpt>
      <trkpt lat="48.53477" lon="2.0494">
        <ele>126</ele>
        <time>2018-02-22T14:37:34.012Z</time>
      </trkpt>
      <trkpt lat="48.53473" lon="2.04927">
        <ele>126</ele>
        <time>2018-02-22T14:37:40.011Z</time>
      </trkpt>
      <trkpt lat="48.53467" lon="2.04917">
        <ele>125</ele>
        <time>2018-02-22T14:37:49.010Z</time>
      </trkpt>
      <trkpt lat="48.53463" lon="2.04904">
        <ele>125</ele>
        <time>2018-02-22T14:37:59.010Z</time>
      </trkpt>
      <trkpt lat="48.53456" lon="2.04893">
        <ele>124</ele>
        <time>2018-02-22T14:38:08.011Z</time>
      </trkpt>
      <trkpt lat="48.53452" lon="2.0488">
        <ele>124</ele>
        <time>2018-02-22T14:38:19.011Z</time>
      </trkpt>
      <trkpt lat="48.53449" lon="2.04866">
        <ele>123</ele>
        <time>2018-02-22T14:38:26.006Z</time>
      </trkpt>
      <trkpt lat="48.53441" lon="2.04858">
        <ele>123</ele>
        <time>2018-02-22T14:38:37.008Z</time>
      </trkpt>
      <trkpt lat="48.53437" lon="2.04846">
        <ele>122</ele>
        <time>2018-02-22T14:38:45.006Z</time>
      </trkpt>
      <trkpt lat="48.53429" lon="2.04837">
        <ele>120</ele>
        <time>2018-02-22T14:38:54.011Z</time>
      </trkpt>
      <trkpt lat="48.53423" lon="2.04826">
        <ele>120</ele>
        <time>2018-02-22T14:39:03.010Z</time>
      </trkpt>
      <trkpt lat="48.53417" lon="2.04815">
        <ele>122</ele>
        <time>2018-02-22T14:39:12.010Z</time>
      </trkpt>
      <trkpt lat="48.5341" lon="2.04807">
        <ele>116</ele>
        <time>2018-02-22T14:39:21.011Z</time>
      </trkpt>
      <trkpt lat="48.53402" lon="2.04799">
        <ele>116</ele>
        <time>2018-02-22T14:39:32.010Z</time>
      </trkpt>
      <trkpt lat="48.53394" lon="2.0479">
        <ele>116</ele>
        <time>2018-02-22T14:39:41.012Z</time>
      </trkpt>
      <trkpt lat="48.53385" lon="2.04785">
        <ele>115</ele>
        <time>2018-02-22T14:39:51.012Z</time>
      </trkpt>
      <trkpt lat="48.53377" lon="2.04779">
        <ele>115</ele>
        <time>2018-02-22T14:40:02.007Z</time>
      </trkpt>
      <trkpt lat="48.53368" lon="2.04772">
        <ele>114</ele>
        <time>2018-02-22T14:40:16.007Z</time>
      </trkpt>
      <trkpt lat="48.53359" lon="2.04765">
        <ele>113</ele>
        <time>2018-02-22T14:40:26.011Z</time>
      </trkpt>
      <trkpt lat="48.53351" lon="2.04759">
        <ele>112</ele>
        <time>2018-02-22T14:40:36.007Z</time>
      </trkpt>
      <trkpt lat="48.53343" lon="2.04752">
        <ele>111</ele>
        <time>2018-02-22T14:40:44.007Z</time>
      </trkpt>
      <trkpt lat="48.53335" lon="2.04744">
        <ele>111</ele>
        <time>2018-02-22T14:40:56.009Z</time>
      </trkpt>
      <trkpt lat="48.53326" lon="2.04736">
        <ele>107</ele>
        <time>2018-02-22T14:41:06.009Z</time>
      </trkpt>
      <trkpt lat="48.53311" lon="2.04717">
        <ele>106</ele>
        <time>2018-02-22T14:41:15.038Z</time>
      </trkpt>
      <trkpt lat="48.53303" lon="2.04704">
        <ele>105</ele>
        <time>2018-02-22T14:41:17.009Z</time>
      </trkpt>
      <trkpt lat="48.53296" lon="2.04694">
        <ele>105</ele>
        <time>2018-02-22T14:41:19.010Z</time>
      </trkpt>
      <trkpt lat="48.53289" lon="2.04684">
        <ele>105</ele>
        <time>2018-02-22T14:41:25.007Z</time>
      </trkpt>
      <trkpt lat="48.53282" lon="2.04674">
        <ele>104</ele>
        <time>2018-02-22T14:41:32.007Z</time>
      </trkpt>
      <trkpt lat="48.53275" lon="2.04664">
        <ele>105</ele>
        <time>2018-02-22T14:41:42.011Z</time>
      </trkpt>
      <trkpt lat="48.53276" lon="2.04649">
        <ele>106</ele>
        <time>2018-02-22T14:41:53.011Z</time>
      </trkpt>
      <trkpt lat="48.53274" lon="2.04635">
        <ele>106</ele>
        <time>2018-02-22T14:42:04.007Z</time>
      </trkpt>
      <trkpt lat="48.53274" lon="2.0462">
        <ele>106</ele>
        <time>2018-02-22T14:42:15.011Z</time>
      </trkpt>
      <trkpt lat="48.53273" lon="2.04606">
        <ele>106</ele>
        <time>2018-02-22T14:42:25.008Z</time>
      </trkpt>
      <trkpt lat="48.5327" lon="2.04593">
        <ele>105</ele>
        <time>2018-02-22T14:42:34.007Z</time>
      </trkpt>
      <trkpt lat="48.53261" lon="2.04587">
        <ele>104</ele>
        <time>2018-02-22T14:42:43.009Z</time>
      </trkpt>
      <trkpt lat="48.53252" lon="2.0458">
        <ele>103</ele>
        <time>2018-02-22T14:42:52.007Z</time>
      </trkpt>
      <trkpt lat="48.53242" lon="2.04579">
        <ele>100</ele>
        <time>2018-02-22T14:42:58.007Z</time>
      </trkpt>
      <trkpt lat="48.5323" lon="2.04575">
        <ele>99</ele>
        <time>2018-02-22T14:43:10.039Z</time>
      </trkpt>
      <trkpt lat="48.53221" lon="2.04573">
        <ele>98</ele>
        <time>2018-02-22T14:43:13.009Z</time>
      </trkpt>
      <trkpt lat="48.53212" lon="2.04575">
        <ele>97</ele>
        <time>2018-02-22T14:43:18.011Z</time>
      </trkpt>
      <trkpt lat="48.532" lon="2.04579">
        <ele>96</ele>
        <time>2018-02-22T14:43:29.035Z</time>
      </trkpt>
      <trkpt lat="48.5319" lon="2.04579">
        <ele>95</ele>
        <time>2018-02-22T14:43:36.009Z</time>
      </trkpt>
      <trkpt lat="48.53181" lon="2.04579">
        <ele>94</ele>
        <time>2018-02-22T14:43:41.009Z</time>
      </trkpt>
      <trkpt lat="48.53171" lon="2.04581">
        <ele>92</ele>
        <time>2018-02-22T14:43:48.007Z</time>
      </trkpt>
      <trkpt lat="48.53161" lon="2.04585">
        <ele>91</ele>
        <time>2018-02-22T14:43:53.981Z</time>
      </trkpt>
      <trkpt lat="48.53153" lon="2.04591">
        <ele>90</ele>
        <time>2018-02-22T14:44:07.007Z</time>
      </trkpt>
      <trkpt lat="48.53143" lon="2.04594">
        <ele>90</ele>
        <time>2018-02-22T14:44:16.012Z</time>
      </trkpt>
      <trkpt lat="48.53133" lon="2.04594">
        <ele>90</ele>
        <time>2018-02-22T14:44:28.009Z</time>
      </trkpt>
      <trkpt lat="48.53124" lon="2.046">
        <ele>90</ele>
        <time>2018-02-22T14:44:37.008Z</time>
      </trkpt>
      <trkpt lat="48.53115" lon="2.04598">
        <ele>90</ele>
        <time>2018-02-22T14:44:47.011Z</time>
      </trkpt>
      <trkpt lat="48.53106" lon="2.04593">
        <ele>90</ele>
        <time>2018-02-22T14:45:26.010Z</time>
      </trkpt>
      <trkpt lat="48.53097" lon="2.04597">
        <ele>89</ele>
        <time>2018-02-22T14:45:33.011Z</time>
      </trkpt>
      <trkpt lat="48.53087" lon="2.04599">
        <ele>89</ele>
        <time>2018-02-22T14:45:41.011Z</time>
      </trkpt>
      <trkpt lat="48.53077" lon="2.04597">
        <ele>89</ele>
        <time>2018-02-22T14:45:49.008Z</time>
      </trkpt>
      <trkpt lat="48.53067" lon="2.04595">
        <ele>89</ele>
        <time>2018-02-22T14:46:00.007Z</time>
      </trkpt>
      <trkpt lat="48.53058" lon="2.04591">
        <ele>89</ele>
        <time>2018-02-22T14:46:11.010Z</time>
      </trkpt>
      <trkpt lat="48.53047" lon="2.04594">
        <ele>89</ele>
        <time>2018-02-22T14:46:20.038Z</time>
      </trkpt>
      <trkpt lat="48.53029" lon="2.04603">
        <ele>89</ele>
        <time>2018-02-22T14:46:29.007Z</time>
      </trkpt>
      <trkpt lat="48.5302" lon="2.04607">
        <ele>90</ele>
        <time>2018-02-22T14:46:34.008Z</time>
      </trkpt>
      <trkpt lat="48.5301" lon="2.04611">
        <ele>90</ele>
        <time>2018-02-22T14:46:41.008Z</time>
      </trkpt>
      <trkpt lat="48.53001" lon="2.04616">
        <ele>89</ele>
        <time>2018-02-22T14:46:49.011Z</time>
      </trkpt>
      <trkpt lat="48.52992" lon="2.0462">
        <ele>90</ele>
        <time>2018-02-22T14:46:57.012Z</time>
      </trkpt>
      <trkpt lat="48.52984" lon="2.04625">
        <ele>90</ele>
        <time>2018-02-22T14:47:09.007Z</time>
      </trkpt>
      <trkpt lat="48.52975" lon="2.04628">
        <ele>90</ele>
        <time>2018-02-22T14:47:40.010Z</time>
      </trkpt>
      <trkpt lat="48.52967" lon="2.04635">
        <ele>90</ele>
        <time>2018-02-22T14:48:31.006Z</time>
      </trkpt>
      <trkpt lat="48.52965" lon="2.04649">
        <ele>90</ele>
        <time>2018-02-22T14:48:50.010Z</time>
      </trkpt>
      <trkpt lat="48.52967" lon="2.04664">
        <ele>90</ele>
        <time>2018-02-22T14:48:58.011Z</time>
      </trkpt>
      <trkpt lat="48.52968" lon="2.04679">
        <ele>89</ele>
        <time>2018-02-22T14:49:08.010Z</time>
      </trkpt>
      <trkpt lat="48.52969" lon="2.04694">
        <ele>89</ele>
        <time>2018-02-22T14:49:15.010Z</time>
      </trkpt>
      <trkpt lat="48.5297" lon="2.04709">
        <ele>89</ele>
        <time>2018-02-22T14:49:24.010Z</time>
      </trkpt>
      <trkpt lat="48.52969" lon="2.04724">
        <ele>89</ele>
        <time>2018-02-22T14:49:34.010Z</time>
      </trkpt>
      <trkpt lat="48.52969" lon="2.04739">
        <ele>89</ele>
        <time>2018-02-22T14:49:43.010Z</time>
      </trkpt>
      <trkpt lat="48.52969" lon="2.04753">
        <ele>89</ele>
        <time>2018-02-22T14:49:53.010Z</time>
      </trkpt>
      <trkpt lat="48.52968" lon="2.04768">
        <ele>89</ele>
        <time>2018-02-22T14:50:03.006Z</time>
      </trkpt>
      <trkpt lat="48.52967" lon="2.04783">
        <ele>89</ele>
        <time>2018-02-22T14:50:13.038Z</time>
      </trkpt>
      <trkpt lat="48.52966" lon="2.04799">
        <ele>89</ele>
        <time>2018-02-22T14:50:21.010Z</time>
      </trkpt>
      <trkpt lat="48.52965" lon="2.04813">
        <ele>89</ele>
        <time>2018-02-22T14:50:30.010Z</time>
      </trkpt>
      <trkpt lat="48.52963" lon="2.04827">
        <ele>89</ele>
        <time>2018-02-22T14:50:36.010Z</time>
      </trkpt>
      <trkpt lat="48.52962" lon="2.04841">
        <ele>88</ele>
        <time>2018-02-22T14:50:44.006Z</time>
      </trkpt>
      <trkpt lat="48.52961" lon="2.04855">
        <ele>88</ele>
        <time>2018-02-22T14:50:52.011Z</time>
      </trkpt>
      <trkpt lat="48.52961" lon="2.04869">
        <ele>88</ele>
        <time>2018-02-22T14:50:59.006Z</time>
      </trkpt>
      <trkpt lat="48.52962" lon="2.04883">
        <ele>87</ele>
        <time>2018-02-22T14:51:09.009Z</time>
      </trkpt>
      <trkpt lat="48.52961" lon="2.04896">
        <ele>87</ele>
        <time>2018-02-22T14:51:28.010Z</time>
      </trkpt>
      <trkpt lat="48.52959" lon="2.04911">
        <ele>87</ele>
        <time>2018-02-22T14:51:38.010Z</time>
      </trkpt>
      <trkpt lat="48.52958" lon="2.04926">
        <ele>87</ele>
        <time>2018-02-22T14:51:45.011Z</time>
      </trkpt>
      <trkpt lat="48.52958" lon="2.04941">
        <ele>87</ele>
        <time>2018-02-22T14:51:54.010Z</time>
      </trkpt>
      <trkpt lat="48.52955" lon="2.04955">
        <ele>87</ele>
        <time>2018-02-22T14:52:03.010Z</time>
      </trkpt>
      <trkpt lat="48.52954" lon="2.04969">
        <ele>86</ele>
        <time>2018-02-22T14:52:10.010Z</time>
      </trkpt>
      <trkpt lat="48.52951" lon="2.04983">
        <ele>86</ele>
        <time>2018-02-22T14:52:17.010Z</time>
      </trkpt>
      <trkpt lat="48.5295" lon="2.04996">
        <ele>86</ele>
        <time>2018-02-22T14:52:24.010Z</time>
      </trkpt>
      <trkpt lat="48.52949" lon="2.05011">
        <ele>87</ele>
        <time>2018-02-22T14:52:31.010Z</time>
      </trkpt>
      <trkpt lat="48.52947" lon="2.05025">
        <ele>87</ele>
        <time>2018-02-22T14:52:39.007Z</time>
      </trkpt>
      <trkpt lat="48.52947" lon="2.05039">
        <ele>87</ele>
        <time>2018-02-22T14:52:46.006Z</time>
      </trkpt>
      <trkpt lat="48.52947" lon="2.05053">
        <ele>87</ele>
        <time>2018-02-22T14:52:55.007Z</time>
      </trkpt>
      <trkpt lat="48.52948" lon="2.05067">
        <ele>87</ele>
        <time>2018-02-22T14:53:04.010Z</time>
      </trkpt>
      <trkpt lat="48.52949" lon="2.05081">
        <ele>87</ele>
        <time>2018-02-22T14:53:17.009Z</time>
      </trkpt>
      <trkpt lat="48.5295" lon="2.05096">
        <ele>88</ele>
        <time>2018-02-22T14:53:23.982Z</time>
      </trkpt>
      <trkpt lat="48.52952" lon="2.05111">
        <ele>88</ele>
        <time>2018-02-22T14:53:33.006Z</time>
      </trkpt>
      <trkpt lat="48.52952" lon="2.05125">
        <ele>88</ele>
        <time>2018-02-22T14:53:42.011Z</time>
      </trkpt>
      <trkpt lat="48.52943" lon="2.05131">
        <ele>88</ele>
        <time>2018-02-22T14:53:53.008Z</time>
      </trkpt>
      <trkpt lat="48.52934" lon="2.05135">
        <ele>88</ele>
        <time>2018-02-22T14:54:02.011Z</time>
      </trkpt>
      <trkpt lat="48.52925" lon="2.05142">
        <ele>88</ele>
        <time>2018-02-22T14:54:12.009Z</time>
      </trkpt>
      <trkpt lat="48.52916" lon="2.05145">
        <ele>90</ele>
        <time>2018-02-22T14:54:19.009Z</time>
      </trkpt>
      <trkpt lat="48.52907" lon="2.0515">
        <ele>90</ele>
        <time>2018-02-22T14:54:25.009Z</time>
      </trkpt>
      <trkpt lat="48.52898" lon="2.05156">
        <ele>90</ele>
        <time>2018-02-22T14:54:35.009Z</time>
      </trkpt>
      <trkpt lat="48.52889" lon="2.05159">
        <ele>90</ele>
        <time>2018-02-22T14:54:44.009Z</time>
      </trkpt>
      <trkpt lat="48.5288" lon="2.05162">
        <ele>90</ele>
        <time>2018-02-22T14:54:51.008Z</time>
      </trkpt>
      <trkpt lat="48.52872" lon="2.05169">
        <ele>93</ele>
        <time>2018-02-22T14:55:03.010Z</time>
      </trkpt>
      <trkpt lat="48.52866" lon="2.0518">
        <ele>93</ele>
        <time>2018-02-22T14:55:29.006Z</time>
      </trkpt>
      <trkpt lat="48.52867" lon="2.05166">
        <ele>91</ele>
        <time>2018-02-22T14:56:15.008Z</time>
      </trkpt>
      <trkpt lat="48.52858" lon="2.0516">
        <ele>91</ele>
        <time>2018-02-22T14:56:33.038Z</time>
      </trkpt>
      <trkpt lat="48.52849" lon="2.05164">
        <ele>92</ele>
        <time>2018-02-22T14:56:47.009Z</time>
      </trkpt>
      <trkpt lat="48.5284" lon="2.05169">
        <ele>94</ele>
        <time>2018-02-22T14:57:20.008Z</time>
      </trkpt>
      <trkpt lat="48.52831" lon="2.05172">
        <ele>95</ele>
        <time>2018-02-22T14:58:00.009Z</time>
      </trkpt>
      <trkpt lat="48.52823" lon="2.05176">
        <ele>95</ele>
        <time>2018-02-22T14:58:12.010Z</time>
      </trkpt>
      <trkpt lat="48.52813" lon="2.05179">
        <ele>96</ele>
        <time>2018-02-22T14:58:22.009Z</time>
      </trkpt>
      <trkpt lat="48.52804" lon="2.0518">
        <ele>96</ele>
        <time>2018-02-22T14:58:33.009Z</time>
      </trkpt>
      <trkpt lat="48.52795" lon="2.05183">
        <ele>96</ele>
        <time>2018-02-22T14:58:43.009Z</time>
      </trkpt>
      <trkpt lat="48.52786" lon="2.05189">
        <ele>97</ele>
        <time>2018-02-22T14:58:51.009Z</time>
      </trkpt>
      <trkpt lat="48.52776" lon="2.05189">
        <ele>97</ele>
        <time>2018-02-22T14:59:02.009Z</time>
      </trkpt>
      <trkpt lat="48.52766" lon="2.0519">
        <ele>97</ele>
        <time>2018-02-22T14:59:13.010Z</time>
      </trkpt>
      <trkpt lat="48.52758" lon="2.05194">
        <ele>97</ele>
        <time>2018-02-22T14:59:24.009Z</time>
      </trkpt>
      <trkpt lat="48.52748" lon="2.05197">
        <ele>98</ele>
        <time>2018-02-22T14:59:34.009Z</time>
      </trkpt>
      <trkpt lat="48.52739" lon="2.052">
        <ele>98</ele>
        <time>2018-02-22T14:59:40.006Z</time>
      </trkpt>
      <trkpt lat="48.5273" lon="2.05204">
        <ele>98</ele>
        <time>2018-02-22T14:59:50.010Z</time>
      </trkpt>
      <trkpt lat="48.52717" lon="2.05207">
        <ele>98</ele>
        <time>2018-02-22T15:00:04.009Z</time>
      </trkpt>
      <trkpt lat="48.52708" lon="2.05211">
        <ele>98</ele>
        <time>2018-02-22T15:00:13.010Z</time>
      </trkpt>
      <trkpt lat="48.52699" lon="2.05214">
        <ele>98</ele>
        <time>2018-02-22T15:00:22.009Z</time>
      </trkpt>
      <trkpt lat="48.52689" lon="2.05218">
        <ele>99</ele>
        <time>2018-02-22T15:00:31.006Z</time>
      </trkpt>
      <trkpt lat="48.5268" lon="2.05221">
        <ele>99</ele>
        <time>2018-02-22T15:00:40.009Z</time>
      </trkpt>
      <trkpt lat="48.52671" lon="2.05222">
        <ele>99</ele>
        <time>2018-02-22T15:00:48.009Z</time>
      </trkpt>
      <trkpt lat="48.52662" lon="2.05225">
        <ele>100</ele>
        <time>2018-02-22T15:00:58.009Z</time>
      </trkpt>
      <trkpt lat="48.52652" lon="2.05224">
        <ele>100</ele>
        <time>2018-02-22T15:01:08.009Z</time>
      </trkpt>
      <trkpt lat="48.52643" lon="2.05227">
        <ele>100</ele>
        <time>2018-02-22T15:01:15.009Z</time>
      </trkpt>
      <trkpt lat="48.52634" lon="2.05232">
        <ele>100</ele>
        <time>2018-02-22T15:01:25.009Z</time>
      </trkpt>
      <trkpt lat="48.52625" lon="2.05231">
        <ele>100</ele>
        <time>2018-02-22T15:01:34.010Z</time>
      </trkpt>
      <trkpt lat="48.52615" lon="2.05233">
        <ele>100</ele>
        <time>2018-02-22T15:01:43.009Z</time>
      </trkpt>
      <trkpt lat="48.52606" lon="2.05233">
        <ele>100</ele>
        <time>2018-02-22T15:01:52.010Z</time>
      </trkpt>
      <trkpt lat="48.52597" lon="2.05232">
        <ele>100</ele>
        <time>2018-02-22T15:02:00.009Z</time>
      </trkpt>
      <trkpt lat="48.52588" lon="2.05228">
        <ele>100</ele>
        <time>2018-02-22T15:02:09.009Z</time>
      </trkpt>
      <trkpt lat="48.52579" lon="2.05231">
        <ele>102</ele>
        <time>2018-02-22T15:02:17.009Z</time>
      </trkpt>
      <trkpt lat="48.5257" lon="2.05235">
        <ele>102</ele>
        <time>2018-02-22T15:02:26.006Z</time>
      </trkpt>
      <trkpt lat="48.5256" lon="2.05235">
        <ele>102</ele>
        <time>2018-02-22T15:02:34.009Z</time>
      </trkpt>
      <trkpt lat="48.5255" lon="2.05235">
        <ele>103</ele>
        <time>2018-02-22T15:02:43.009Z</time>
      </trkpt>
      <trkpt lat="48.5254" lon="2.05236">
        <ele>103</ele>
        <time>2018-02-22T15:02:53.038Z</time>
      </trkpt>
      <trkpt lat="48.52531" lon="2.05237">
        <ele>103</ele>
        <time>2018-02-22T15:03:02.009Z</time>
      </trkpt>
      <trkpt lat="48.52522" lon="2.05239">
        <ele>103</ele>
        <time>2018-02-22T15:03:11.009Z</time>
      </trkpt>
      <trkpt lat="48.52513" lon="2.05241">
        <ele>104</ele>
        <time>2018-02-22T15:03:20.009Z</time>
      </trkpt>
      <trkpt lat="48.52504" lon="2.05242">
        <ele>104</ele>
        <time>2018-02-22T15:03:27.009Z</time>
      </trkpt>
      <trkpt lat="48.52495" lon="2.05242">
        <ele>106</ele>
        <time>2018-02-22T15:03:34.005Z</time>
      </trkpt>
      <trkpt lat="48.52485" lon="2.0524">
        <ele>106</ele>
        <time>2018-02-22T15:03:47.009Z</time>
      </trkpt>
      <trkpt lat="48.52477" lon="2.05244">
        <ele>106</ele>
        <time>2018-02-22T15:03:56.006Z</time>
      </trkpt>
      <trkpt lat="48.52467" lon="2.05248">
        <ele>107</ele>
        <time>2018-02-22T15:04:09.009Z</time>
      </trkpt>
      <trkpt lat="48.52458" lon="2.05246">
        <ele>107</ele>
        <time>2018-02-22T15:04:15.010Z</time>
      </trkpt>
      <trkpt lat="48.52448" lon="2.05245">
        <ele>107</ele>
        <time>2018-02-22T15:04:25.010Z</time>
      </trkpt>
      <trkpt lat="48.52438" lon="2.05246">
        <ele>108</ele>
        <time>2018-02-22T15:04:36.009Z</time>
      </trkpt>
      <trkpt lat="48.52428" lon="2.05245">
        <ele>108</ele>
        <time>2018-02-22T15:04:45.006Z</time>
      </trkpt>
      <trkpt lat="48.52418" lon="2.05246">
        <ele>109</ele>
        <time>2018-02-22T15:04:52.006Z</time>
      </trkpt>
      <trkpt lat="48.52409" lon="2.05246">
        <ele>110</ele>
        <time>2018-02-22T15:05:01.006Z</time>
      </trkpt>
      <trkpt lat="48.52399" lon="2.05247">
        <ele>111</ele>
        <time>2018-02-22T15:05:08.009Z</time>
      </trkpt>
      <trkpt lat="48.5239" lon="2.05248">
        <ele>111</ele>
        <time>2018-02-22T15:05:17.009Z</time>
      </trkpt>
      <trkpt lat="48.5238" lon="2.05247">
        <ele>112</ele>
        <time>2018-02-22T15:05:25.010Z</time>
      </trkpt>
      <trkpt lat="48.5237" lon="2.05245">
        <ele>113</ele>
        <time>2018-02-22T15:05:36.009Z</time>
      </trkpt>
      <trkpt lat="48.52358" lon="2.05246">
        <ele>114</ele>
        <time>2018-02-22T15:05:42.039Z</time>
      </trkpt>
      <trkpt lat="48.52331" lon="2.05258">
        <ele>118</ele>
        <time>2018-02-22T15:05:43.039Z</time>
      </trkpt>
      <trkpt lat="48.52319" lon="2.05259">
        <ele>118</ele>
        <time>2018-02-22T15:05:44.009Z</time>
      </trkpt>
      <trkpt lat="48.5231" lon="2.05254">
        <ele>119</ele>
        <time>2018-02-22T15:05:49.009Z</time>
      </trkpt>
      <trkpt lat="48.52299" lon="2.0525">
        <ele>119</ele>
        <time>2018-02-22T15:05:58.009Z</time>
      </trkpt>
      <trkpt lat="48.52294" lon="2.05239">
        <ele>116</ele>
        <time>2018-02-22T15:06:13.010Z</time>
      </trkpt>
      <trkpt lat="48.52284" lon="2.05234">
        <ele>117</ele>
        <time>2018-02-22T15:06:27.009Z</time>
      </trkpt>
      <trkpt lat="48.52275" lon="2.05227">
        <ele>117</ele>
        <time>2018-02-22T15:06:39.010Z</time>
      </trkpt>
      <trkpt lat="48.52267" lon="2.0522">
        <ele>117</ele>
        <time>2018-02-22T15:06:50.011Z</time>
      </trkpt>
      <trkpt lat="48.52257" lon="2.05219">
        <ele>117</ele>
        <time>2018-02-22T15:06:59.009Z</time>
      </trkpt>
      <trkpt lat="48.52248" lon="2.05216">
        <ele>118</ele>
        <time>2018-02-22T15:07:09.009Z</time>
      </trkpt>
      <trkpt lat="48.52239" lon="2.05214">
        <ele>118</ele>
        <time>2018-02-22T15:07:17.006Z</time>
      </trkpt>
      <trkpt lat="48.52228" lon="2.05212">
        <ele>118</ele>
        <time>2018-02-22T15:07:27.006Z</time>
      </trkpt>
      <trkpt lat="48.5222" lon="2.05208">
        <ele>118</ele>
        <time>2018-02-22T15:07:52.009Z</time>
      </trkpt>
      <trkpt lat="48.52211" lon="2.05204">
        <ele>118</ele>
        <time>2018-02-22T15:08:07.008Z</time>
      </trkpt>
      <trkpt lat="48.52202" lon="2.052">
        <ele>118</ele>
        <time>2018-02-22T15:08:36.009Z</time>
      </trkpt>
      <trkpt lat="48.52193" lon="2.05197">
        <ele>118</ele>
        <time>2018-02-22T15:11:03.007Z</time>
      </trkpt>
      <trkpt lat="48.52183" lon="2.05198">
        <ele>118</ele>
        <time>2018-02-22T15:11:11.007Z</time>
      </trkpt>
      <trkpt lat="48.52174" lon="2.052">
        <ele>118</ele>
        <time>2018-02-22T15:11:18.011Z</time>
      </trkpt>
      <trkpt lat="48.52164" lon="2.05201">
        <ele>119</ele>
        <time>2018-02-22T15:11:28.007Z</time>
      </trkpt>
      <trkpt lat="48.52155" lon="2.052">
        <ele>119</ele>
        <time>2018-02-22T15:11:37.011Z</time>
      </trkpt>
      <trkpt lat="48.52145" lon="2.05199">
        <ele>119</ele>
        <time>2018-02-22T15:11:45.010Z</time>
      </trkpt>
      <trkpt lat="48.52135" lon="2.052">
        <ele>119</ele>
        <time>2018-02-22T15:11:54.012Z</time>
      </trkpt>
      <trkpt lat="48.52126" lon="2.05198">
        <ele>119</ele>
        <time>2018-02-22T15:12:03.010Z</time>
      </trkpt>
      <trkpt lat="48.52117" lon="2.05196">
        <ele>119</ele>
        <time>2018-02-22T15:12:11.011Z</time>
      </trkpt>
      <trkpt lat="48.52107" lon="2.05194">
        <ele>119</ele>
        <time>2018-02-22T15:12:18.007Z</time>
      </trkpt>
      <trkpt lat="48.52097" lon="2.05194">
        <ele>118</ele>
        <time>2018-02-22T15:12:27.008Z</time>
      </trkpt>
      <trkpt lat="48.52088" lon="2.05193">
        <ele>118</ele>
        <time>2018-02-22T15:12:35.007Z</time>
      </trkpt>
      <trkpt lat="48.52079" lon="2.05195">
        <ele>120</ele>
        <time>2018-02-22T15:12:43.007Z</time>
      </trkpt>
      <trkpt lat="48.52069" lon="2.05198">
        <ele>120</ele>
        <time>2018-02-22T15:12:50.012Z</time>
      </trkpt>
      <trkpt lat="48.5206" lon="2.05198">
        <ele>121</ele>
        <time>2018-02-22T15:12:58.007Z</time>
      </trkpt>
      <trkpt lat="48.5205" lon="2.05198">
        <ele>121</ele>
        <time>2018-02-22T15:13:06.007Z</time>
      </trkpt>
      <trkpt lat="48.5204" lon="2.05199">
        <ele>121</ele>
        <time>2018-02-22T15:13:15.011Z</time>
      </trkpt>
      <trkpt lat="48.52031" lon="2.05202">
        <ele>122</ele>
        <time>2018-02-22T15:13:24.011Z</time>
      </trkpt>
      <trkpt lat="48.52022" lon="2.05207">
        <ele>122</ele>
        <time>2018-02-22T15:13:33.006Z</time>
      </trkpt>
      <trkpt lat="48.52012" lon="2.05207">
        <ele>122</ele>
        <time>2018-02-22T15:13:41.011Z</time>
      </trkpt>
      <trkpt lat="48.52002" lon="2.05205">
        <ele>122</ele>
        <time>2018-02-22T15:14:11.009Z</time>
      </trkpt>
      <trkpt lat="48.51992" lon="2.05209">
        <ele>128</ele>
        <time>2018-02-22T15:14:19.007Z</time>
      </trkpt>
      <trkpt lat="48.51983" lon="2.05211">
        <ele>128</ele>
        <time>2018-02-22T15:14:28.011Z</time>
      </trkpt>
      <trkpt lat="48.51974" lon="2.05212">
        <ele>129</ele>
        <time>2018-02-22T15:14:41.010Z</time>
      </trkpt>
      <trkpt lat="48.51965" lon="2.05214">
        <ele>129</ele>
        <time>2018-02-22T15:14:51.009Z</time>
      </trkpt>
      <trkpt lat="48.51955" lon="2.05215">
        <ele>130</ele>
        <time>2018-02-22T15:15:03.981Z</time>
      </trkpt>
      <trkpt lat="48.51946" lon="2.05211">
        <ele>130</ele>
        <time>2018-02-22T15:15:21.010Z</time>
      </trkpt>
      <trkpt lat="48.51937" lon="2.05202">
        <ele>131</ele>
        <time>2018-02-22T15:15:33.039Z</time>
      </trkpt>
      <trkpt lat="48.51928" lon="2.05198">
        <ele>131</ele>
        <time>2018-02-22T15:15:45.008Z</time>
      </trkpt>
      <trkpt lat="48.51919" lon="2.052">
        <ele>131</ele>
        <time>2018-02-22T15:16:03.009Z</time>
      </trkpt>
      <trkpt lat="48.51913" lon="2.0521">
        <ele>138</ele>
        <time>2018-02-22T15:17:01.009Z</time>
      </trkpt>
      <trkpt lat="48.51915" lon="2.05224">
        <ele>139</ele>
        <time>2018-02-22T15:17:44.009Z</time>
      </trkpt>
      <trkpt lat="48.51907" lon="2.05214">
        <ele>139</ele>
        <time>2018-02-22T15:18:29.008Z</time>
      </trkpt>
      <trkpt lat="48.51906" lon="2.052">
        <ele>138</ele>
        <time>2018-02-22T15:18:40.008Z</time>
      </trkpt>
      <trkpt lat="48.51903" lon="2.05186">
        <ele>137</ele>
        <time>2018-02-22T15:18:49.013Z</time>
      </trkpt>
      <trkpt lat="48.51901" lon="2.05172">
        <ele>136</ele>
        <time>2018-02-22T15:18:57.004Z</time>
      </trkpt>
      <trkpt lat="48.51897" lon="2.0516">
        <ele>135</ele>
        <time>2018-02-22T15:19:06.009Z</time>
      </trkpt>
      <trkpt lat="48.51896" lon="2.05146">
        <ele>136</ele>
        <time>2018-02-22T15:19:14.009Z</time>
      </trkpt>
      <trkpt lat="48.51896" lon="2.05131">
        <ele>136</ele>
        <time>2018-02-22T15:19:23.009Z</time>
      </trkpt>
      <trkpt lat="48.51901" lon="2.05118">
        <ele>136</ele>
        <time>2018-02-22T15:19:35.011Z</time>
      </trkpt>
      <trkpt lat="48.51904" lon="2.05105">
        <ele>136</ele>
        <time>2018-02-22T15:19:46.009Z</time>
      </trkpt>
      <trkpt lat="48.51909" lon="2.05093">
        <ele>135</ele>
        <time>2018-02-22T15:19:55.012Z</time>
      </trkpt>
      <trkpt lat="48.51917" lon="2.05085">
        <ele>134</ele>
        <time>2018-02-22T15:20:06.008Z</time>
      </trkpt>
      <trkpt lat="48.51923" lon="2.05074">
        <ele>133</ele>
        <time>2018-02-22T15:20:18.008Z</time>
      </trkpt>
      <trkpt lat="48.5193" lon="2.05064">
        <ele>132</ele>
        <time>2018-02-22T15:20:28.012Z</time>
      </trkpt>
      <trkpt lat="48.51936" lon="2.05053">
        <ele>132</ele>
        <time>2018-02-22T15:20:38.009Z</time>
      </trkpt>
      <trkpt lat="48.51942" lon="2.05042">
        <ele>131</ele>
        <time>2018-02-22T15:20:49.008Z</time>
      </trkpt>
      <trkpt lat="48.51948" lon="2.05031">
        <ele>131</ele>
        <time>2018-02-22T15:20:56.008Z</time>
      </trkpt>
      <trkpt lat="48.51954" lon="2.05019">
        <ele>131</ele>
        <time>2018-02-22T15:21:04.009Z</time>
      </trkpt>
      <trkpt lat="48.51958" lon="2.05006">
        <ele>131</ele>
        <time>2018-02-22T15:21:15.008Z</time>
      </trkpt>
      <trkpt lat="48.5196" lon="2.04992">
        <ele>131</ele>
        <time>2018-02-22T15:21:25.009Z</time>
      </trkpt>
      <trkpt lat="48.51961" lon="2.04978">
        <ele>131</ele>
        <time>2018-02-22T15:21:32.008Z</time>
      </trkpt>
      <trkpt lat="48.5196" lon="2.04964">
        <ele>131</ele>
        <time>2018-02-22T15:21:42.009Z</time>
      </trkpt>
      <trkpt lat="48.51957" lon="2.04951">
        <ele>131</ele>
        <time>2018-02-22T15:21:50.010Z</time>
      </trkpt>
      <trkpt lat="48.51958" lon="2.04937">
        <ele>131</ele>
        <time>2018-02-22T15:21:59.013Z</time>
      </trkpt>
      <trkpt lat="48.51959" lon="2.04923">
        <ele>131</ele>
        <time>2018-02-22T15:22:06.009Z</time>
      </trkpt>
      <trkpt lat="48.51961" lon="2.04909">
        <ele>129</ele>
        <time>2018-02-22T15:22:14.009Z</time>
      </trkpt>
      <trkpt lat="48.51961" lon="2.04895">
        <ele>129</ele>
        <time>2018-02-22T15:22:26.007Z</time>
      </trkpt>
      <trkpt lat="48.51965" lon="2.04883">
        <ele>128</ele>
        <time>2018-02-22T15:22:32.009Z</time>
      </trkpt>
      <trkpt lat="48.51969" lon="2.04871">
        <ele>128</ele>
        <time>2018-02-22T15:22:37.010Z</time>
      </trkpt>
      <trkpt lat="48.51973" lon="2.04858">
        <ele>127</ele>
        <time>2018-02-22T15:22:44.010Z</time>
      </trkpt>
      <trkpt lat="48.51979" lon="2.04847">
        <ele>126</ele>
        <time>2018-02-22T15:22:51.011Z</time>
      </trkpt>
      <trkpt lat="48.51986" lon="2.04837">
        <ele>124</ele>
        <time>2018-02-22T15:23:00.011Z</time>
      </trkpt>
      <trkpt lat="48.51994" lon="2.04827">
        <ele>123</ele>
        <time>2018-02-22T15:23:10.007Z</time>
      </trkpt>
      <trkpt lat="48.52002" lon="2.04819">
        <ele>121</ele>
        <time>2018-02-22T15:23:20.007Z</time>
      </trkpt>
      <trkpt lat="48.52011" lon="2.04819">
        <ele>122</ele>
        <time>2018-02-22T15:23:29.007Z</time>
      </trkpt>
      <trkpt lat="48.5202" lon="2.04813">
        <ele>122</ele>
        <time>2018-02-22T15:23:35.005Z</time>
      </trkpt>
      <trkpt lat="48.52029" lon="2.04815">
        <ele>122</ele>
        <time>2018-02-22T15:23:45.008Z</time>
      </trkpt>
      <trkpt lat="48.52038" lon="2.04821">
        <ele>122</ele>
        <time>2018-02-22T15:23:57.008Z</time>
      </trkpt>
      <trkpt lat="48.52047" lon="2.04828">
        <ele>122</ele>
        <time>2018-02-22T15:24:02.008Z</time>
      </trkpt>
      <trkpt lat="48.52056" lon="2.04833">
        <ele>122</ele>
        <time>2018-02-22T15:24:08.008Z</time>
      </trkpt>
      <trkpt lat="48.52065" lon="2.04838">
        <ele>120</ele>
        <time>2018-02-22T15:24:18.009Z</time>
      </trkpt>
      <trkpt lat="48.52073" lon="2.04846">
        <ele>120</ele>
        <time>2018-02-22T15:24:25.008Z</time>
      </trkpt>
      <trkpt lat="48.52082" lon="2.04852">
        <ele>120</ele>
        <time>2018-02-22T15:24:31.005Z</time>
      </trkpt>
      <trkpt lat="48.52091" lon="2.04856">
        <ele>119</ele>
        <time>2018-02-22T15:24:42.009Z</time>
      </trkpt>
      <trkpt lat="48.521" lon="2.04863">
        <ele>119</ele>
        <time>2018-02-22T15:24:48.008Z</time>
      </trkpt>
      <trkpt lat="48.52109" lon="2.04869">
        <ele>119</ele>
        <time>2018-02-22T15:24:53.009Z</time>
      </trkpt>
      <trkpt lat="48.52118" lon="2.04874">
        <ele>119</ele>
        <time>2018-02-22T15:25:03.037Z</time>
      </trkpt>
      <trkpt lat="48.52127" lon="2.04879">
        <ele>119</ele>
        <time>2018-02-22T15:25:15.008Z</time>
      </trkpt>
      <trkpt lat="48.52135" lon="2.04886">
        <ele>119</ele>
        <time>2018-02-22T15:25:22.006Z</time>
      </trkpt>
      <trkpt lat="48.52144" lon="2.04893">
        <ele>118</ele>
        <time>2018-02-22T15:25:27.009Z</time>
      </trkpt>
      <trkpt lat="48.52153" lon="2.04898">
        <ele>118</ele>
        <time>2018-02-22T15:25:33.009Z</time>
      </trkpt>
      <trkpt lat="48.52163" lon="2.04902">
        <ele>118</ele>
        <time>2018-02-22T15:25:43.011Z</time>
      </trkpt>
      <trkpt lat="48.52171" lon="2.04909">
        <ele>117</ele>
        <time>2018-02-22T15:25:51.007Z</time>
      </trkpt>
      <trkpt lat="48.52179" lon="2.04917">
        <ele>117</ele>
        <time>2018-02-22T15:25:57.010Z</time>
      </trkpt>
      <trkpt lat="48.52188" lon="2.04925">
        <ele>117</ele>
        <time>2018-02-22T15:26:02.009Z</time>
      </trkpt>
      <trkpt lat="48.52197" lon="2.04933">
        <ele>117</ele>
        <time>2018-02-22T15:26:08.009Z</time>
      </trkpt>
      <trkpt lat="48.52206" lon="2.04938">
        <ele>117</ele>
        <time>2018-02-22T15:26:17.009Z</time>
      </trkpt>
      <trkpt lat="48.52214" lon="2.04946">
        <ele>117</ele>
        <time>2018-02-22T15:26:28.009Z</time>
      </trkpt>
      <trkpt lat="48.52223" lon="2.04954">
        <ele>117</ele>
        <time>2018-02-22T15:26:33.012Z</time>
      </trkpt>
      <trkpt lat="48.52232" lon="2.0496">
        <ele>116</ele>
        <time>2018-02-22T15:26:39.010Z</time>
      </trkpt>
      <trkpt lat="48.52241" lon="2.04965">
        <ele>116</ele>
        <time>2018-02-22T15:26:48.007Z</time>
      </trkpt>
      <trkpt lat="48.5225" lon="2.04972">
        <ele>116</ele>
        <time>2018-02-22T15:26:57.006Z</time>
      </trkpt>
      <trkpt lat="48.52259" lon="2.04977">
        <ele>116</ele>
        <time>2018-02-22T15:27:02.009Z</time>
      </trkpt>
      <trkpt lat="48.52268" lon="2.04981">
        <ele>116</ele>
        <time>2018-02-22T15:27:11.010Z</time>
      </trkpt>
      <trkpt lat="48.52278" lon="2.04985">
        <ele>116</ele>
        <time>2018-02-22T15:27:23.006Z</time>
      </trkpt>
      <trkpt lat="48.52287" lon="2.04989">
        <ele>116</ele>
        <time>2018-02-22T15:27:29.011Z</time>
      </trkpt>
      <trkpt lat="48.52295" lon="2.0498">
        <ele>116</ele>
        <time>2018-02-22T15:27:38.010Z</time>
      </trkpt>
      <trkpt lat="48.52301" lon="2.04969">
        <ele>116</ele>
        <time>2018-02-22T15:27:47.008Z</time>
      </trkpt>
      <trkpt lat="48.52308" lon="2.04959">
        <ele>116</ele>
        <time>2018-02-22T15:27:56.010Z</time>
      </trkpt>
      <trkpt lat="48.52314" lon="2.04948">
        <ele>117</ele>
        <time>2018-02-22T15:28:03.010Z</time>
      </trkpt>
      <trkpt lat="48.5232" lon="2.04937">
        <ele>117</ele>
        <time>2018-02-22T15:28:17.008Z</time>
      </trkpt>
      <trkpt lat="48.52323" lon="2.04924">
        <ele>118</ele>
        <time>2018-02-22T15:28:38.008Z</time>
      </trkpt>
      <trkpt lat="48.52328" lon="2.04911">
        <ele>119</ele>
        <time>2018-02-22T15:28:48.008Z</time>
      </trkpt>
      <trkpt lat="48.52329" lon="2.04897">
        <ele>118</ele>
        <time>2018-02-22T15:28:59.009Z</time>
      </trkpt>
      <trkpt lat="48.52334" lon="2.04885">
        <ele>117</ele>
        <time>2018-02-22T15:29:09.009Z</time>
      </trkpt>
      <trkpt lat="48.5234" lon="2.04874">
        <ele>117</ele>
        <time>2018-02-22T15:29:20.007Z</time>
      </trkpt>
      <trkpt lat="48.52345" lon="2.04862">
        <ele>117</ele>
        <time>2018-02-22T15:29:26.010Z</time>
      </trkpt>
      <trkpt lat="48.52349" lon="2.0485">
        <ele>117</ele>
        <time>2018-02-22T15:29:37.006Z</time>
      </trkpt>
      <trkpt lat="48.52355" lon="2.04838">
        <ele>117</ele>
        <time>2018-02-22T15:29:49.008Z</time>
      </trkpt>
      <trkpt lat="48.52362" lon="2.04827">
        <ele>116</ele>
        <time>2018-02-22T15:29:58.008Z</time>
      </trkpt>
      <trkpt lat="48.52367" lon="2.04816">
        <ele>116</ele>
        <time>2018-02-22T15:30:09.009Z</time>
      </trkpt>
      <trkpt lat="48.52368" lon="2.04801">
        <ele>116</ele>
        <time>2018-02-22T15:30:19.012Z</time>
      </trkpt>
      <trkpt lat="48.52369" lon="2.04788">
        <ele>116</ele>
        <time>2018-02-22T15:30:26.009Z</time>
      </trkpt>
      <trkpt lat="48.52372" lon="2.04775">
        <ele>116</ele>
        <time>2018-02-22T15:30:35.008Z</time>
      </trkpt>
      <trkpt lat="48.52376" lon="2.04762">
        <ele>116</ele>
        <time>2018-02-22T15:30:42.008Z</time>
      </trkpt>
      <trkpt lat="48.5238" lon="2.0475">
        <ele>115</ele>
        <time>2018-02-22T15:30:49.009Z</time>
      </trkpt>
      <trkpt lat="48.52383" lon="2.04737">
        <ele>115</ele>
        <time>2018-02-22T15:30:56.007Z</time>
      </trkpt>
      <trkpt lat="48.52388" lon="2.04724">
        <ele>115</ele>
        <time>2018-02-22T15:31:03.013Z</time>
      </trkpt>
      <trkpt lat="48.52392" lon="2.0471">
        <ele>115</ele>
        <time>2018-02-22T15:31:14.008Z</time>
      </trkpt>
      <trkpt lat="48.52393" lon="2.04697">
        <ele>115</ele>
        <time>2018-02-22T15:31:21.008Z</time>
      </trkpt>
      <trkpt lat="48.52394" lon="2.04683">
        <ele>115</ele>
        <time>2018-02-22T15:31:29.008Z</time>
      </trkpt>
      <trkpt lat="48.52394" lon="2.04668">
        <ele>115</ele>
        <time>2018-02-22T15:31:36.009Z</time>
      </trkpt>
      <trkpt lat="48.52396" lon="2.04655">
        <ele>114</ele>
        <time>2018-02-22T15:31:43.008Z</time>
      </trkpt>
      <trkpt lat="48.52399" lon="2.04638">
        <ele>114</ele>
        <time>2018-02-22T15:31:49.007Z</time>
      </trkpt>
      <trkpt lat="48.52399" lon="2.04624">
        <ele>113</ele>
        <time>2018-02-22T15:31:56.011Z</time>
      </trkpt>
      <trkpt lat="48.52401" lon="2.04609">
        <ele>113</ele>
        <time>2018-02-22T15:32:04.008Z</time>
      </trkpt>
      <trkpt lat="48.52402" lon="2.04594">
        <ele>113</ele>
        <time>2018-02-22T15:32:13.008Z</time>
      </trkpt>
      <trkpt lat="48.52405" lon="2.04581">
        <ele>112</ele>
        <time>2018-02-22T15:32:19.008Z</time>
      </trkpt>
      <trkpt lat="48.52407" lon="2.04568">
        <ele>112</ele>
        <time>2018-02-22T15:32:27.010Z</time>
      </trkpt>
      <trkpt lat="48.52408" lon="2.04552">
        <ele>112</ele>
        <time>2018-02-22T15:32:35.012Z</time>
      </trkpt>
      <trkpt lat="48.52411" lon="2.04538">
        <ele>111</ele>
        <time>2018-02-22T15:32:45.012Z</time>
      </trkpt>
      <trkpt lat="48.52412" lon="2.04524">
        <ele>111</ele>
        <time>2018-02-22T15:32:53.008Z</time>
      </trkpt>
      <trkpt lat="48.52414" lon="2.04511">
        <ele>111</ele>
        <time>2018-02-22T15:33:03.008Z</time>
      </trkpt>
      <trkpt lat="48.52418" lon="2.04498">
        <ele>110</ele>
        <time>2018-02-22T15:33:13.008Z</time>
      </trkpt>
      <trkpt lat="48.5242" lon="2.04484">
        <ele>109</ele>
        <time>2018-02-22T15:33:23.011Z</time>
      </trkpt>
      <trkpt lat="48.52422" lon="2.04469">
        <ele>108</ele>
        <time>2018-02-22T15:33:31.008Z</time>
      </trkpt>
      <trkpt lat="48.52425" lon="2.04455">
        <ele>107</ele>
        <time>2018-02-22T15:33:40.008Z</time>
      </trkpt>
      <trkpt lat="48.52426" lon="2.04441">
        <ele>107</ele>
        <time>2018-02-22T15:33:47.012Z</time>
      </trkpt>
      <trkpt lat="48.52427" lon="2.04427">
        <ele>107</ele>
        <time>2018-02-22T15:33:56.008Z</time>
      </trkpt>
      <trkpt lat="48.52425" lon="2.04413">
        <ele>106</ele>
        <time>2018-02-22T15:34:03.008Z</time>
      </trkpt>
      <trkpt lat="48.52428" lon="2.04399">
        <ele>105</ele>
        <time>2018-02-22T15:34:12.008Z</time>
      </trkpt>
      <trkpt lat="48.52429" lon="2.04385">
        <ele>105</ele>
        <time>2018-02-22T15:34:22.010Z</time>
      </trkpt>
      <trkpt lat="48.52429" lon="2.04371">
        <ele>105</ele>
        <time>2018-02-22T15:34:30.008Z</time>
      </trkpt>
      <trkpt lat="48.5243" lon="2.04355">
        <ele>105</ele>
        <time>2018-02-22T15:34:39.009Z</time>
      </trkpt>
      <trkpt lat="48.52429" lon="2.04341">
        <ele>105</ele>
        <time>2018-02-22T15:34:46.009Z</time>
      </trkpt>
      <trkpt lat="48.52428" lon="2.04326">
        <ele>105</ele>
        <time>2018-02-22T15:34:53.010Z</time>
      </trkpt>
      <trkpt lat="48.52429" lon="2.04312">
        <ele>104</ele>
        <time>2018-02-22T15:35:02.007Z</time>
      </trkpt>
      <trkpt lat="48.5243" lon="2.04297">
        <ele>104</ele>
        <time>2018-02-22T15:35:09.008Z</time>
      </trkpt>
      <trkpt lat="48.52429" lon="2.04282">
        <ele>104</ele>
        <time>2018-02-22T15:35:18.008Z</time>
      </trkpt>
      <trkpt lat="48.5243" lon="2.04268">
        <ele>104</ele>
        <time>2018-02-22T15:35:24.008Z</time>
      </trkpt>
      <trkpt lat="48.5243" lon="2.04254">
        <ele>105</ele>
        <time>2018-02-22T15:35:32.011Z</time>
      </trkpt>
      <trkpt lat="48.52432" lon="2.04241">
        <ele>104</ele>
        <time>2018-02-22T15:35:38.012Z</time>
      </trkpt>
      <trkpt lat="48.52436" lon="2.04227">
        <ele>104</ele>
        <time>2018-02-22T15:35:48.007Z</time>
      </trkpt>
      <trkpt lat="48.52441" lon="2.04215">
        <ele>103</ele>
        <time>2018-02-22T15:35:53.008Z</time>
      </trkpt>
      <trkpt lat="48.52446" lon="2.04203">
        <ele>103</ele>
        <time>2018-02-22T15:36:00.008Z</time>
      </trkpt>
      <trkpt lat="48.52451" lon="2.04191">
        <ele>103</ele>
        <time>2018-02-22T15:36:06.008Z</time>
      </trkpt>
      <trkpt lat="48.52455" lon="2.04177">
        <ele>103</ele>
        <time>2018-02-22T15:36:13.011Z</time>
      </trkpt>
      <trkpt lat="48.52458" lon="2.04164">
        <ele>102</ele>
        <time>2018-02-22T15:36:20.011Z</time>
      </trkpt>
      <trkpt lat="48.5246" lon="2.04151">
        <ele>101</ele>
        <time>2018-02-22T15:36:26.010Z</time>
      </trkpt>
      <trkpt lat="48.52463" lon="2.04137">
        <ele>101</ele>
        <time>2018-02-22T15:36:35.008Z</time>
      </trkpt>
      <trkpt lat="48.52464" lon="2.04122">
        <ele>101</ele>
        <time>2018-02-22T15:36:41.011Z</time>
      </trkpt>
      <trkpt lat="48.52466" lon="2.04107">
        <ele>100</ele>
        <time>2018-02-22T15:36:48.007Z</time>
      </trkpt>
      <trkpt lat="48.52468" lon="2.04094">
        <ele>100</ele>
        <time>2018-02-22T15:36:54.007Z</time>
      </trkpt>
      <trkpt lat="48.5247" lon="2.04079">
        <ele>100</ele>
        <time>2018-02-22T15:37:00.011Z</time>
      </trkpt>
      <trkpt lat="48.5247" lon="2.04064">
        <ele>100</ele>
        <time>2018-02-22T15:37:08.007Z</time>
      </trkpt>
      <trkpt lat="48.52474" lon="2.0405">
        <ele>100</ele>
        <time>2018-02-22T15:37:14.007Z</time>
      </trkpt>
      <trkpt lat="48.52478" lon="2.04037">
        <ele>100</ele>
        <time>2018-02-22T15:37:19.011Z</time>
      </trkpt>
      <trkpt lat="48.52479" lon="2.04023">
        <ele>100</ele>
        <time>2018-02-22T15:37:29.012Z</time>
      </trkpt>
      <trkpt lat="48.52483" lon="2.04009">
        <ele>101</ele>
        <time>2018-02-22T15:37:38.008Z</time>
      </trkpt>
      <trkpt lat="48.52487" lon="2.03997">
        <ele>101</ele>
        <time>2018-02-22T15:37:47.004Z</time>
      </trkpt>
      <trkpt lat="48.52493" lon="2.03986">
        <ele>101</ele>
        <time>2018-02-22T15:37:56.012Z</time>
      </trkpt>
      <trkpt lat="48.52493" lon="2.03971">
        <ele>102</ele>
        <time>2018-02-22T15:38:10.008Z</time>
      </trkpt>
      <trkpt lat="48.52498" lon="2.03959">
        <ele>102</ele>
        <time>2018-02-22T15:38:19.010Z</time>
      </trkpt>
      <trkpt lat="48.525" lon="2.03945">
        <ele>102</ele>
        <time>2018-02-22T15:38:29.010Z</time>
      </trkpt>
      <trkpt lat="48.52504" lon="2.03933">
        <ele>102</ele>
        <time>2018-02-22T15:38:38.007Z</time>
      </trkpt>
      <trkpt lat="48.52508" lon="2.0392">
        <ele>102</ele>
        <time>2018-02-22T15:38:45.007Z</time>
      </trkpt>
      <trkpt lat="48.52511" lon="2.03908">
        <ele>102</ele>
        <time>2018-02-22T15:38:51.007Z</time>
      </trkpt>
      <trkpt lat="48.52512" lon="2.03894">
        <ele>102</ele>
        <time>2018-02-22T15:39:00.007Z</time>
      </trkpt>
      <trkpt lat="48.52515" lon="2.03881">
        <ele>101</ele>
        <time>2018-02-22T15:39:09.008Z</time>
      </trkpt>
      <trkpt lat="48.52518" lon="2.03868">
        <ele>101</ele>
        <time>2018-02-22T15:39:15.008Z</time>
      </trkpt>
      <trkpt lat="48.52521" lon="2.03854">
        <ele>101</ele>
        <time>2018-02-22T15:39:23.007Z</time>
      </trkpt>
      <trkpt lat="48.52525" lon="2.03841">
        <ele>101</ele>
        <time>2018-02-22T15:39:33.008Z</time>
      </trkpt>
      <trkpt lat="48.52526" lon="2.03827">
        <ele>99</ele>
        <time>2018-02-22T15:39:49.011Z</time>
      </trkpt>
      <trkpt lat="48.52526" lon="2.03813">
        <ele>99</ele>
        <time>2018-02-22T15:40:03.009Z</time>
      </trkpt>
      <trkpt lat="48.52529" lon="2.038">
        <ele>98</ele>
        <time>2018-02-22T15:40:14.007Z</time>
      </trkpt>
      <trkpt lat="48.52532" lon="2.03786">
        <ele>98</ele>
        <time>2018-02-22T15:40:23.009Z</time>
      </trkpt>
      <trkpt lat="48.52536" lon="2.03772">
        <ele>98</ele>
        <time>2018-02-22T15:40:31.012Z</time>
      </trkpt>
      <trkpt lat="48.52539" lon="2.03759">
        <ele>98</ele>
        <time>2018-02-22T15:40:41.011Z</time>
      </trkpt>
      <trkpt lat="48.52544" lon="2.03746">
        <ele>96</ele>
        <time>2018-02-22T15:40:50.007Z</time>
      </trkpt>
      <trkpt lat="48.52546" lon="2.03731">
        <ele>95</ele>
        <time>2018-02-22T15:41:00.007Z</time>
      </trkpt>
      <trkpt lat="48.52551" lon="2.0372">
        <ele>95</ele>
        <time>2018-02-22T15:41:07.011Z</time>
      </trkpt>
      <trkpt lat="48.52554" lon="2.03705">
        <ele>95</ele>
        <time>2018-02-22T15:41:21.008Z</time>
      </trkpt>
      <trkpt lat="48.52559" lon="2.03692">
        <ele>95</ele>
        <time>2018-02-22T15:41:30.007Z</time>
      </trkpt>
      <trkpt lat="48.52564" lon="2.0368">
        <ele>95</ele>
        <time>2018-02-22T15:41:36.010Z</time>
      </trkpt>
      <trkpt lat="48.5257" lon="2.0367">
        <ele>94</ele>
        <time>2018-02-22T15:41:44.011Z</time>
      </trkpt>
      <trkpt lat="48.52576" lon="2.03659">
        <ele>94</ele>
        <time>2018-02-22T15:41:51.007Z</time>
      </trkpt>
      <trkpt lat="48.5258" lon="2.03646">
        <ele>94</ele>
        <time>2018-02-22T15:41:58.011Z</time>
      </trkpt>
      <trkpt lat="48.52585" lon="2.03634">
        <ele>93</ele>
        <time>2018-02-22T15:42:07.007Z</time>
      </trkpt>
      <trkpt lat="48.5259" lon="2.03621">
        <ele>92</ele>
        <time>2018-02-22T15:42:16.011Z</time>
      </trkpt>
      <trkpt lat="48.52594" lon="2.03609">
        <ele>92</ele>
        <time>2018-02-22T15:42:23.009Z</time>
      </trkpt>
      <trkpt lat="48.52598" lon="2.03596">
        <ele>92</ele>
        <time>2018-02-22T15:42:31.007Z</time>
      </trkpt>
      <trkpt lat="48.52603" lon="2.03584">
        <ele>92</ele>
        <time>2018-02-22T15:42:40.009Z</time>
      </trkpt>
      <trkpt lat="48.52607" lon="2.0357">
        <ele>91</ele>
        <time>2018-02-22T15:42:48.010Z</time>
      </trkpt>
      <trkpt lat="48.52611" lon="2.03556">
        <ele>91</ele>
        <time>2018-02-22T15:42:58.010Z</time>
      </trkpt>
      <trkpt lat="48.52613" lon="2.03542">
        <ele>91</ele>
        <time>2018-02-22T15:43:08.007Z</time>
      </trkpt>
      <trkpt lat="48.52614" lon="2.03529">
        <ele>91</ele>
        <time>2018-02-22T15:43:20.010Z</time>
      </trkpt>
      <trkpt lat="48.52611" lon="2.03514">
        <ele>91</ele>
        <time>2018-02-22T15:43:43.009Z</time>
      </trkpt>
      <trkpt lat="48.52606" lon="2.03498">
        <ele>91</ele>
        <time>2018-02-22T15:43:50.009Z</time>
      </trkpt>
      <trkpt lat="48.52601" lon="2.03485">
        <ele>91</ele>
        <time>2018-02-22T15:44:09.009Z</time>
      </trkpt>
      <trkpt lat="48.52604" lon="2.03471">
        <ele>91</ele>
        <time>2018-02-22T15:44:16.008Z</time>
      </trkpt>
      <trkpt lat="48.52605" lon="2.03458">
        <ele>91</ele>
        <time>2018-02-22T15:44:32.009Z</time>
      </trkpt>
      <trkpt lat="48.52612" lon="2.03447">
        <ele>91</ele>
        <time>2018-02-22T15:44:44.010Z</time>
      </trkpt>
      <trkpt lat="48.52618" lon="2.03437">
        <ele>90</ele>
        <time>2018-02-22T15:44:55.008Z</time>
      </trkpt>
      <trkpt lat="48.52623" lon="2.03425">
        <ele>90</ele>
        <time>2018-02-22T15:45:11.009Z</time>
      </trkpt>
      <trkpt lat="48.52625" lon="2.03411">
        <ele>90</ele>
        <time>2018-02-22T15:45:26.008Z</time>
      </trkpt>
      <trkpt lat="48.52627" lon="2.03398">
        <ele>90</ele>
        <time>2018-02-22T15:45:33.012Z</time>
      </trkpt>
      <trkpt lat="48.52628" lon="2.03384">
        <ele>91</ele>
        <time>2018-02-22T15:45:41.007Z</time>
      </trkpt>
      <trkpt lat="48.52629" lon="2.03369">
        <ele>91</ele>
        <time>2018-02-22T15:45:51.009Z</time>
      </trkpt>
      <trkpt lat="48.52628" lon="2.03353">
        <ele>91</ele>
        <time>2018-02-22T15:45:59.009Z</time>
      </trkpt>
      <trkpt lat="48.52624" lon="2.0334">
        <ele>91</ele>
        <time>2018-02-22T15:46:06.007Z</time>
      </trkpt>
      <trkpt lat="48.52622" lon="2.03325">
        <ele>92</ele>
        <time>2018-02-22T15:46:14.007Z</time>
      </trkpt>
      <trkpt lat="48.52619" lon="2.03312">
        <ele>92</ele>
        <time>2018-02-22T15:46:21.011Z</time>
      </trkpt>
      <trkpt lat="48.52618" lon="2.03298">
        <ele>92</ele>
        <time>2018-02-22T15:46:27.012Z</time>
      </trkpt>
      <trkpt lat="48.52614" lon="2.03283">
        <ele>92</ele>
        <time>2018-02-22T15:46:34.011Z</time>
      </trkpt>
      <trkpt lat="48.52611" lon="2.03269">
        <ele>92</ele>
        <time>2018-02-22T15:46:43.012Z</time>
      </trkpt>
      <trkpt lat="48.52608" lon="2.03256">
        <ele>93</ele>
        <time>2018-02-22T15:46:52.011Z</time>
      </trkpt>
      <trkpt lat="48.52606" lon="2.03242">
        <ele>93</ele>
        <time>2018-02-22T15:47:03.012Z</time>
      </trkpt>
      <trkpt lat="48.52604" lon="2.03228">
        <ele>92</ele>
        <time>2018-02-22T15:47:13.983Z</time>
      </trkpt>
      <trkpt lat="48.526" lon="2.03214">
        <ele>92</ele>
        <time>2018-02-22T15:47:23.012Z</time>
      </trkpt>
      <trkpt lat="48.52595" lon="2.032">
        <ele>92</ele>
        <time>2018-02-22T15:47:29.010Z</time>
      </trkpt>
      <trkpt lat="48.52592" lon="2.03187">
        <ele>93</ele>
        <time>2018-02-22T15:47:39.008Z</time>
      </trkpt>
      <trkpt lat="48.52593" lon="2.03174">
        <ele>93</ele>
        <time>2018-02-22T15:47:52.008Z</time>
      </trkpt>
      <trkpt lat="48.52593" lon="2.0316">
        <ele>93</ele>
        <time>2018-02-22T15:48:02.011Z</time>
      </trkpt>
      <trkpt lat="48.52594" lon="2.03145">
        <ele>93</ele>
        <time>2018-02-22T15:48:14.008Z</time>
      </trkpt>
      <trkpt lat="48.52595" lon="2.0313">
        <ele>93</ele>
        <time>2018-02-22T15:48:25.011Z</time>
      </trkpt>
      <trkpt lat="48.52594" lon="2.03116">
        <ele>93</ele>
        <time>2018-02-22T15:48:37.009Z</time>
      </trkpt>
      <trkpt lat="48.52595" lon="2.03102">
        <ele>94</ele>
        <time>2018-02-22T15:48:46.008Z</time>
      </trkpt>
      <trkpt lat="48.52595" lon="2.03088">
        <ele>94</ele>
        <time>2018-02-22T15:48:55.007Z</time>
      </trkpt>
      <trkpt lat="48.52595" lon="2.03074">
        <ele>95</ele>
        <time>2018-02-22T15:49:03.010Z</time>
      </trkpt>
      <trkpt lat="48.52594" lon="2.03059">
        <ele>94</ele>
        <time>2018-02-22T15:49:13.010Z</time>
      </trkpt>
      <trkpt lat="48.52594" lon="2.03046">
        <ele>94</ele>
        <time>2018-02-22T15:49:24.009Z</time>
      </trkpt>
      <trkpt lat="48.52597" lon="2.03032">
        <ele>95</ele>
        <time>2018-02-22T15:49:36.013Z</time>
      </trkpt>
      <trkpt lat="48.52605" lon="2.03021">
        <ele>95</ele>
        <time>2018-02-22T15:49:43.007Z</time>
      </trkpt>
      <trkpt lat="48.52612" lon="2.03011">
        <ele>94</ele>
        <time>2018-02-22T15:49:52.009Z</time>
      </trkpt>
      <trkpt lat="48.52619" lon="2.03001">
        <ele>94</ele>
        <time>2018-02-22T15:49:59.009Z</time>
      </trkpt>
      <trkpt lat="48.52625" lon="2.02989">
        <ele>94</ele>
        <time>2018-02-22T15:50:07.008Z</time>
      </trkpt>
      <trkpt lat="48.52632" lon="2.0298">
        <ele>94</ele>
        <time>2018-02-22T15:50:15.009Z</time>
      </trkpt>
      <trkpt lat="48.52642" lon="2.02971">
        <ele>93</ele>
        <time>2018-02-22T15:50:23.036Z</time>
      </trkpt>
      <trkpt lat="48.5265" lon="2.02962">
        <ele>93</ele>
        <time>2018-02-22T15:50:33.008Z</time>
      </trkpt>
      <trkpt lat="48.52657" lon="2.02952">
        <ele>93</ele>
        <time>2018-02-22T15:50:40.008Z</time>
      </trkpt>
      <trkpt lat="48.52664" lon="2.02942">
        <ele>93</ele>
        <time>2018-02-22T15:50:48.011Z</time>
      </trkpt>
      <trkpt lat="48.5267" lon="2.02931">
        <ele>92</ele>
        <time>2018-02-22T15:50:56.008Z</time>
      </trkpt>
      <trkpt lat="48.52677" lon="2.02924">
        <ele>92</ele>
        <time>2018-02-22T15:51:04.013Z</time>
      </trkpt>
      <trkpt lat="48.52685" lon="2.02914">
        <ele>93</ele>
        <time>2018-02-22T15:51:12.008Z</time>
      </trkpt>
      <trkpt lat="48.52693" lon="2.02906">
        <ele>93</ele>
        <time>2018-02-22T15:51:21.009Z</time>
      </trkpt>
      <trkpt lat="48.52701" lon="2.029">
        <ele>93</ele>
        <time>2018-02-22T15:51:28.007Z</time>
      </trkpt>
      <trkpt lat="48.5271" lon="2.02892">
        <ele>93</ele>
        <time>2018-02-22T15:51:38.008Z</time>
      </trkpt>
      <trkpt lat="48.52719" lon="2.02887">
        <ele>93</ele>
        <time>2018-02-22T15:51:47.009Z</time>
      </trkpt>
      <trkpt lat="48.52727" lon="2.0288">
        <ele>93</ele>
        <time>2018-02-22T15:51:59.008Z</time>
      </trkpt>
      <trkpt lat="48.52735" lon="2.02874">
        <ele>93</ele>
        <time>2018-02-22T15:52:07.009Z</time>
      </trkpt>
      <trkpt lat="48.52743" lon="2.0287">
        <ele>93</ele>
        <time>2018-02-22T15:52:13.009Z</time>
      </trkpt>
      <trkpt lat="48.52753" lon="2.02865">
        <ele>93</ele>
        <time>2018-02-22T15:52:21.008Z</time>
      </trkpt>
      <trkpt lat="48.52762" lon="2.0286">
        <ele>93</ele>
        <time>2018-02-22T15:52:28.009Z</time>
      </trkpt>
      <trkpt lat="48.52771" lon="2.02855">
        <ele>93</ele>
        <time>2018-02-22T15:52:36.009Z</time>
      </trkpt>
      <trkpt lat="48.52781" lon="2.02852">
        <ele>92</ele>
        <time>2018-02-22T15:52:44.008Z</time>
      </trkpt>
      <trkpt lat="48.5279" lon="2.02847">
        <ele>92</ele>
        <time>2018-02-22T15:52:51.008Z</time>
      </trkpt>
      <trkpt lat="48.52799" lon="2.02841">
        <ele>92</ele>
        <time>2018-02-22T15:53:01.012Z</time>
      </trkpt>
      <trkpt lat="48.52808" lon="2.02837">
        <ele>92</ele>
        <time>2018-02-22T15:53:10.008Z</time>
      </trkpt>
      <trkpt lat="48.52818" lon="2.02835">
        <ele>92</ele>
        <time>2018-02-22T15:53:18.009Z</time>
      </trkpt>
      <trkpt lat="48.52827" lon="2.02833">
        <ele>91</ele>
        <time>2018-02-22T15:53:27.010Z</time>
      </trkpt>
      <trkpt lat="48.52837" lon="2.02831">
        <ele>91</ele>
        <time>2018-02-22T15:53:36.006Z</time>
      </trkpt>
      <trkpt lat="48.52847" lon="2.02829">
        <ele>91</ele>
        <time>2018-02-22T15:53:46.008Z</time>
      </trkpt>
      <trkpt lat="48.52857" lon="2.02828">
        <ele>91</ele>
        <time>2018-02-22T15:53:57.008Z</time>
      </trkpt>
      <trkpt lat="48.52866" lon="2.02827">
        <ele>91</ele>
        <time>2018-02-22T15:54:08.008Z</time>
      </trkpt>
      <trkpt lat="48.52875" lon="2.02827">
        <ele>91</ele>
        <time>2018-02-22T15:54:17.010Z</time>
      </trkpt>
      <trkpt lat="48.52883" lon="2.02816">
        <ele>91</ele>
        <time>2018-02-22T15:54:30.011Z</time>
      </trkpt>
      <trkpt lat="48.52892" lon="2.02811">
        <ele>91</ele>
        <time>2018-02-22T15:54:36.008Z</time>
      </trkpt>
      <trkpt lat="48.52901" lon="2.02809">
        <ele>92</ele>
        <time>2018-02-22T15:54:46.013Z</time>
      </trkpt>
      <trkpt lat="48.52912" lon="2.02808">
        <ele>92</ele>
        <time>2018-02-22T15:54:52.012Z</time>
      </trkpt>
      <trkpt lat="48.52921" lon="2.02807">
        <ele>93</ele>
        <time>2018-02-22T15:54:59.009Z</time>
      </trkpt>
      <trkpt lat="48.52931" lon="2.02806">
        <ele>93</ele>
        <time>2018-02-22T15:55:08.008Z</time>
      </trkpt>
      <trkpt lat="48.52941" lon="2.02805">
        <ele>94</ele>
        <time>2018-02-22T15:55:17.006Z</time>
      </trkpt>
      <trkpt lat="48.5295" lon="2.02805">
        <ele>94</ele>
        <time>2018-02-22T15:55:26.008Z</time>
      </trkpt>
      <trkpt lat="48.52959" lon="2.02804">
        <ele>94</ele>
        <time>2018-02-22T15:55:33.008Z</time>
      </trkpt>
      <trkpt lat="48.52969" lon="2.02803">
        <ele>94</ele>
        <time>2018-02-22T15:55:44.010Z</time>
      </trkpt>
      <trkpt lat="48.52979" lon="2.028">
        <ele>94</ele>
        <time>2018-02-22T15:55:54.012Z</time>
      </trkpt>
      <trkpt lat="48.52988" lon="2.02794">
        <ele>95</ele>
        <time>2018-02-22T15:56:05.008Z</time>
      </trkpt>
      <trkpt lat="48.52994" lon="2.02785">
        <ele>95</ele>
        <time>2018-02-22T15:56:15.008Z</time>
      </trkpt>
      <trkpt lat="48.52997" lon="2.02771">
        <ele>95</ele>
        <time>2018-02-22T15:56:29.010Z</time>
      </trkpt>
      <trkpt lat="48.52999" lon="2.02756">
        <ele>96</ele>
        <time>2018-02-22T15:56:39.010Z</time>
      </trkpt>
      <trkpt lat="48.53" lon="2.02742">
        <ele>97</ele>
        <time>2018-02-22T15:56:48.006Z</time>
      </trkpt>
      <trkpt lat="48.53001" lon="2.02729">
        <ele>99</ele>
        <time>2018-02-22T15:56:57.006Z</time>
      </trkpt>
      <trkpt lat="48.53003" lon="2.02715">
        <ele>99</ele>
        <time>2018-02-22T15:57:06.010Z</time>
      </trkpt>
      <trkpt lat="48.53004" lon="2.02701">
        <ele>99</ele>
        <time>2018-02-22T15:57:18.008Z</time>
      </trkpt>
      <trkpt lat="48.53005" lon="2.02687">
        <ele>99</ele>
        <time>2018-02-22T15:57:27.010Z</time>
      </trkpt>
      <trkpt lat="48.53007" lon="2.02673">
        <ele>99</ele>
        <time>2018-02-22T15:57:36.005Z</time>
      </trkpt>
      <trkpt lat="48.53008" lon="2.02659">
        <ele>99</ele>
        <time>2018-02-22T15:57:46.008Z</time>
      </trkpt>
      <trkpt lat="48.5301" lon="2.02645">
        <ele>100</ele>
        <time>2018-02-22T15:57:54.006Z</time>
      </trkpt>
      <trkpt lat="48.53012" lon="2.0263">
        <ele>100</ele>
        <time>2018-02-22T15:58:04.010Z</time>
      </trkpt>
      <trkpt lat="48.53015" lon="2.02617">
        <ele>100</ele>
        <time>2018-02-22T15:58:12.010Z</time>
      </trkpt>
      <trkpt lat="48.53017" lon="2.02603">
        <ele>100</ele>
        <time>2018-02-22T15:58:21.010Z</time>
      </trkpt>
      <trkpt lat="48.53016" lon="2.02589">
        <ele>100</ele>
        <time>2018-02-22T15:58:29.009Z</time>
      </trkpt>
      <trkpt lat="48.53016" lon="2.02575">
        <ele>100</ele>
        <time>2018-02-22T15:58:38.009Z</time>
      </trkpt>
      <trkpt lat="48.53015" lon="2.0256">
        <ele>101</ele>
        <time>2018-02-22T15:58:48.008Z</time>
      </trkpt>
      <trkpt lat="48.53014" lon="2.02546">
        <ele>101</ele>
        <time>2018-02-22T15:58:56.008Z</time>
      </trkpt>
      <trkpt lat="48.5301" lon="2.02532">
        <ele>101</ele>
        <time>2018-02-22T15:59:04.008Z</time>
      </trkpt>
      <trkpt lat="48.53009" lon="2.02518">
        <ele>100</ele>
        <time>2018-02-22T15:59:13.009Z</time>
      </trkpt>
      <trkpt lat="48.53008" lon="2.02504">
        <ele>100</ele>
        <time>2018-02-22T15:59:22.010Z</time>
      </trkpt>
      <trkpt lat="48.53009" lon="2.02488">
        <ele>100</ele>
        <time>2018-02-22T15:59:30.009Z</time>
      </trkpt>
      <trkpt lat="48.5301" lon="2.02475">
        <ele>101</ele>
        <time>2018-02-22T15:59:38.005Z</time>
      </trkpt>
      <trkpt lat="48.5301" lon="2.0246">
        <ele>101</ele>
        <time>2018-02-22T15:59:46.005Z</time>
      </trkpt>
      <trkpt lat="48.53011" lon="2.02446">
        <ele>101</ele>
        <time>2018-02-22T15:59:56.005Z</time>
      </trkpt>
      <trkpt lat="48.5301" lon="2.02432">
        <ele>101</ele>
        <time>2018-02-22T16:00:03.034Z</time>
      </trkpt>
      <trkpt lat="48.53009" lon="2.02417">
        <ele>101</ele>
        <time>2018-02-22T16:00:12.008Z</time>
      </trkpt>
      <trkpt lat="48.53009" lon="2.02403">
        <ele>102</ele>
        <time>2018-02-22T16:00:19.007Z</time>
      </trkpt>
      <trkpt lat="48.53008" lon="2.02388">
        <ele>102</ele>
        <time>2018-02-22T16:00:27.011Z</time>
      </trkpt>
      <trkpt lat="48.53006" lon="2.02374">
        <ele>102</ele>
        <time>2018-02-22T16:00:36.009Z</time>
      </trkpt>
      <trkpt lat="48.53004" lon="2.0236">
        <ele>102</ele>
        <time>2018-02-22T16:00:42.010Z</time>
      </trkpt>
      <trkpt lat="48.53002" lon="2.02347">
        <ele>102</ele>
        <time>2018-02-22T16:00:49.010Z</time>
      </trkpt>
      <trkpt lat="48.53001" lon="2.02332">
        <ele>101</ele>
        <time>2018-02-22T16:00:57.009Z</time>
      </trkpt>
      <trkpt lat="48.52998" lon="2.02318">
        <ele>100</ele>
        <time>2018-02-22T16:01:06.006Z</time>
      </trkpt>
      <trkpt lat="48.52997" lon="2.02305">
        <ele>100</ele>
        <time>2018-02-22T16:01:16.010Z</time>
      </trkpt>
      <trkpt lat="48.52994" lon="2.0229">
        <ele>100</ele>
        <time>2018-02-22T16:01:27.009Z</time>
      </trkpt>
      <trkpt lat="48.52993" lon="2.02277">
        <ele>100</ele>
        <time>2018-02-22T16:01:34.009Z</time>
      </trkpt>
      <trkpt lat="48.52993" lon="2.02262">
        <ele>100</ele>
        <time>2018-02-22T16:01:43.006Z</time>
      </trkpt>
      <trkpt lat="48.5299" lon="2.02248">
        <ele>101</ele>
        <time>2018-02-22T16:01:50.010Z</time>
      </trkpt>
      <trkpt lat="48.52991" lon="2.02234">
        <ele>100</ele>
        <time>2018-02-22T16:01:59.010Z</time>
      </trkpt>
      <trkpt lat="48.5299" lon="2.0222">
        <ele>100</ele>
        <time>2018-02-22T16:02:06.008Z</time>
      </trkpt>
      <trkpt lat="48.52991" lon="2.02207">
        <ele>100</ele>
        <time>2018-02-22T16:02:13.008Z</time>
      </trkpt>
      <trkpt lat="48.52996" lon="2.02194">
        <ele>100</ele>
        <time>2018-02-22T16:02:21.011Z</time>
      </trkpt>
      <trkpt lat="48.52999" lon="2.02181">
        <ele>100</ele>
        <time>2018-02-22T16:02:31.007Z</time>
      </trkpt>
      <trkpt lat="48.53004" lon="2.02168">
        <ele>101</ele>
        <time>2018-02-22T16:02:44.007Z</time>
      </trkpt>
      <trkpt lat="48.53006" lon="2.02155">
        <ele>102</ele>
        <time>2018-02-22T16:02:53.009Z</time>
      </trkpt>
      <trkpt lat="48.53006" lon="2.02075">
        <ele>103</ele>
        <time>2018-02-22T16:02:57.040Z</time>
      </trkpt>
      <trkpt lat="48.53007" lon="2.02054">
        <ele>104</ele>
        <time>2018-02-22T16:02:58.009Z</time>
      </trkpt>
      <trkpt lat="48.53005" lon="2.02041">
        <ele>105</ele>
        <time>2018-02-22T16:03:08.009Z</time>
      </trkpt>
      <trkpt lat="48.53009" lon="2.02028">
        <ele>105</ele>
        <time>2018-02-22T16:03:19.011Z</time>
      </trkpt>
      <trkpt lat="48.53007" lon="2.02014">
        <ele>105</ele>
        <time>2018-02-22T16:03:27.009Z</time>
      </trkpt>
      <trkpt lat="48.53009" lon="2.02">
        <ele>105</ele>
        <time>2018-02-22T16:03:39.009Z</time>
      </trkpt>
      <trkpt lat="48.5301" lon="2.01986">
        <ele>106</ele>
        <time>2018-02-22T16:03:50.009Z</time>
      </trkpt>
      <trkpt lat="48.53011" lon="2.01971">
        <ele>107</ele>
        <time>2018-02-22T16:04:00.009Z</time>
      </trkpt>
      <trkpt lat="48.53014" lon="2.01958">
        <ele>108</ele>
        <time>2018-02-22T16:04:11.013Z</time>
      </trkpt>
      <trkpt lat="48.53015" lon="2.01944">
        <ele>108</ele>
        <time>2018-02-22T16:04:20.009Z</time>
      </trkpt>
      <trkpt lat="48.53017" lon="2.01931">
        <ele>108</ele>
        <time>2018-02-22T16:04:31.010Z</time>
      </trkpt>
      <trkpt lat="48.53019" lon="2.01916">
        <ele>108</ele>
        <time>2018-02-22T16:04:43.009Z</time>
      </trkpt>
      <trkpt lat="48.53023" lon="2.01903">
        <ele>109</ele>
        <time>2018-02-22T16:04:55.007Z</time>
      </trkpt>
      <trkpt lat="48.53024" lon="2.01888">
        <ele>109</ele>
        <time>2018-02-22T16:05:04.010Z</time>
      </trkpt>
      <trkpt lat="48.53029" lon="2.01874">
        <ele>109</ele>
        <time>2018-02-22T16:05:15.013Z</time>
      </trkpt>
      <trkpt lat="48.53029" lon="2.01859">
        <ele>109</ele>
        <time>2018-02-22T16:05:22.009Z</time>
      </trkpt>
      <trkpt lat="48.53027" lon="2.01846">
        <ele>109</ele>
        <time>2018-02-22T16:05:30.009Z</time>
      </trkpt>
      <trkpt lat="48.53031" lon="2.01833">
        <ele>108</ele>
        <time>2018-02-22T16:05:39.009Z</time>
      </trkpt>
      <trkpt lat="48.53039" lon="2.01826">
        <ele>108</ele>
        <time>2018-02-22T16:05:49.009Z</time>
      </trkpt>
      <trkpt lat="48.53045" lon="2.01815">
        <ele>109</ele>
        <time>2018-02-22T16:05:58.009Z</time>
      </trkpt>
      <trkpt lat="48.53048" lon="2.01802">
        <ele>108</ele>
        <time>2018-02-22T16:06:07.009Z</time>
      </trkpt>
      <trkpt lat="48.53051" lon="2.01789">
        <ele>108</ele>
        <time>2018-02-22T16:06:15.008Z</time>
      </trkpt>
      <trkpt lat="48.53057" lon="2.01774">
        <ele>108</ele>
        <time>2018-02-22T16:06:24.039Z</time>
      </trkpt>
      <trkpt lat="48.5305" lon="2.01748">
        <ele>109</ele>
        <time>2018-02-22T16:06:25.039Z</time>
      </trkpt>
      <trkpt lat="48.53041" lon="2.01721">
        <ele>109</ele>
        <time>2018-02-22T16:06:26.009Z</time>
      </trkpt>
      <trkpt lat="48.53037" lon="2.01685">
        <ele>109</ele>
        <time>2018-02-22T16:06:27.009Z</time>
      </trkpt>
      <trkpt lat="48.53036" lon="2.01672">
        <ele>109</ele>
        <time>2018-02-22T16:06:34.008Z</time>
      </trkpt>
      <trkpt lat="48.53038" lon="2.01658">
        <ele>111</ele>
        <time>2018-02-22T16:06:41.007Z</time>
      </trkpt>
      <trkpt lat="48.53043" lon="2.01646">
        <ele>112</ele>
        <time>2018-02-22T16:06:49.009Z</time>
      </trkpt>
      <trkpt lat="48.53049" lon="2.01634">
        <ele>112</ele>
        <time>2018-02-22T16:06:56.008Z</time>
      </trkpt>
      <trkpt lat="48.53055" lon="2.01623">
        <ele>113</ele>
        <time>2018-02-22T16:07:05.007Z</time>
      </trkpt>
      <trkpt lat="48.5306" lon="2.01611">
        <ele>113</ele>
        <time>2018-02-22T16:07:14.008Z</time>
      </trkpt>
      <trkpt lat="48.53064" lon="2.01596">
        <ele>114</ele>
        <time>2018-02-22T16:07:23.011Z</time>
      </trkpt>
      <trkpt lat="48.5307" lon="2.01585">
        <ele>115</ele>
        <time>2018-02-22T16:07:29.009Z</time>
      </trkpt>
      <trkpt lat="48.53076" lon="2.01572">
        <ele>115</ele>
        <time>2018-02-22T16:07:33.946Z</time>
      </trkpt>
      <trkpt lat="48.53077" lon="2.01558">
        <ele>114</ele>
        <time>2018-02-22T16:07:38.009Z</time>
      </trkpt>
      <trkpt lat="48.53075" lon="2.01543">
        <ele>114</ele>
        <time>2018-02-22T16:07:44.008Z</time>
      </trkpt>
      <trkpt lat="48.53075" lon="2.01529">
        <ele>114</ele>
        <time>2018-02-22T16:07:50.011Z</time>
      </trkpt>
      <trkpt lat="48.53081" lon="2.01516">
        <ele>114</ele>
        <time>2018-02-22T16:08:01.008Z</time>
      </trkpt>
      <trkpt lat="48.53086" lon="2.01505">
        <ele>115</ele>
        <time>2018-02-22T16:08:08.008Z</time>
      </trkpt>
      <trkpt lat="48.53093" lon="2.01496">
        <ele>114</ele>
        <time>2018-02-22T16:08:14.011Z</time>
      </trkpt>
      <trkpt lat="48.531" lon="2.01487">
        <ele>114</ele>
        <time>2018-02-22T16:08:25.011Z</time>
      </trkpt>
      <trkpt lat="48.53098" lon="2.0147">
        <ele>113</ele>
        <time>2018-02-22T16:08:40.009Z</time>
      </trkpt>
      <trkpt lat="48.53093" lon="2.01457">
        <ele>113</ele>
        <time>2018-02-22T16:08:49.009Z</time>
      </trkpt>
      <trkpt lat="48.53094" lon="2.01442">
        <ele>112</ele>
        <time>2018-02-22T16:08:58.009Z</time>
      </trkpt>
      <trkpt lat="48.53101" lon="2.01432">
        <ele>112</ele>
        <time>2018-02-22T16:09:06.009Z</time>
      </trkpt>
      <trkpt lat="48.53108" lon="2.01423">
        <ele>112</ele>
        <time>2018-02-22T16:09:12.009Z</time>
      </trkpt>
      <trkpt lat="48.53112" lon="2.01411">
        <ele>110</ele>
        <time>2018-02-22T16:09:20.011Z</time>
      </trkpt>
      <trkpt lat="48.53117" lon="2.01398">
        <ele>110</ele>
        <time>2018-02-22T16:09:31.949Z</time>
      </trkpt>
      <trkpt lat="48.53126" lon="2.01388">
        <ele>110</ele>
        <time>2018-02-22T16:09:36.009Z</time>
      </trkpt>
      <trkpt lat="48.5313" lon="2.01376">
        <ele>110</ele>
        <time>2018-02-22T16:09:45.007Z</time>
      </trkpt>
      <trkpt lat="48.53138" lon="2.01368">
        <ele>110</ele>
        <time>2018-02-22T16:09:55.011Z</time>
      </trkpt>
      <trkpt lat="48.53146" lon="2.01359">
        <ele>110</ele>
        <time>2018-02-22T16:10:08.008Z</time>
      </trkpt>
      <trkpt lat="48.53154" lon="2.01348">
        <ele>110</ele>
        <time>2018-02-22T16:10:15.008Z</time>
      </trkpt>
      <trkpt lat="48.53162" lon="2.01339">
        <ele>110</ele>
        <time>2018-02-22T16:10:22.013Z</time>
      </trkpt>
      <trkpt lat="48.53163" lon="2.01324">
        <ele>110</ele>
        <time>2018-02-22T16:10:26.039Z</time>
      </trkpt>
      <trkpt lat="48.53168" lon="2.01312">
        <ele>110</ele>
        <time>2018-02-22T16:10:37.012Z</time>
      </trkpt>
      <trkpt lat="48.53174" lon="2.01301">
        <ele>111</ele>
        <time>2018-02-22T16:10:47.008Z</time>
      </trkpt>
      <trkpt lat="48.53177" lon="2.01267">
        <ele>111</ele>
        <time>2018-02-22T16:10:55.039Z</time>
      </trkpt>
      <trkpt lat="48.53179" lon="2.01253">
        <ele>111</ele>
        <time>2018-02-22T16:11:00.011Z</time>
      </trkpt>
      <trkpt lat="48.53182" lon="2.01239">
        <ele>111</ele>
        <time>2018-02-22T16:11:08.011Z</time>
      </trkpt>
      <trkpt lat="48.53187" lon="2.01226">
        <ele>111</ele>
        <time>2018-02-22T16:11:17.004Z</time>
      </trkpt>
      <trkpt lat="48.5319" lon="2.01213">
        <ele>112</ele>
        <time>2018-02-22T16:11:27.011Z</time>
      </trkpt>
      <trkpt lat="48.53196" lon="2.01201">
        <ele>112</ele>
        <time>2018-02-22T16:11:37.012Z</time>
      </trkpt>
      <trkpt lat="48.53203" lon="2.01194">
        <ele>112</ele>
        <time>2018-02-22T16:11:46.008Z</time>
      </trkpt>
      <trkpt lat="48.53207" lon="2.01181">
        <ele>112</ele>
        <time>2018-02-22T16:11:50.009Z</time>
      </trkpt>
      <trkpt lat="48.53206" lon="2.01165">
        <ele>113</ele>
        <time>2018-02-22T16:11:54.009Z</time>
      </trkpt>
      <trkpt lat="48.53206" lon="2.01151">
        <ele>113</ele>
        <time>2018-02-22T16:11:58.009Z</time>
      </trkpt>
      <trkpt lat="48.53204" lon="2.01137">
        <ele>113</ele>
        <time>2018-02-22T16:12:03.009Z</time>
      </trkpt>
      <trkpt lat="48.53203" lon="2.01123">
        <ele>113</ele>
        <time>2018-02-22T16:12:09.009Z</time>
      </trkpt>
      <trkpt lat="48.53199" lon="2.01108">
        <ele>113</ele>
        <time>2018-02-22T16:12:16.009Z</time>
      </trkpt>
      <trkpt lat="48.53205" lon="2.01098">
        <ele>113</ele>
        <time>2018-02-22T16:12:24.012Z</time>
      </trkpt>
      <trkpt lat="48.53214" lon="2.01096">
        <ele>113</ele>
        <time>2018-02-22T16:12:43.006Z</time>
      </trkpt>
      <trkpt lat="48.53219" lon="2.01084">
        <ele>113</ele>
        <time>2018-02-22T16:12:52.009Z</time>
      </trkpt>
      <trkpt lat="48.53214" lon="2.01072">
        <ele>114</ele>
        <time>2018-02-22T16:13:07.012Z</time>
      </trkpt>
      <trkpt lat="48.5321" lon="2.01059">
        <ele>114</ele>
        <time>2018-02-22T16:13:27.008Z</time>
      </trkpt>
      <trkpt lat="48.53205" lon="2.01046">
        <ele>114</ele>
        <time>2018-02-22T16:13:51.008Z</time>
      </trkpt>
      <trkpt lat="48.53197" lon="2.01039">
        <ele>114</ele>
        <time>2018-02-22T16:14:00.009Z</time>
      </trkpt>
      <trkpt lat="48.53191" lon="2.01027">
        <ele>114</ele>
        <time>2018-02-22T16:14:15.008Z</time>
      </trkpt>
      <trkpt lat="48.53188" lon="2.01014">
        <ele>114</ele>
        <time>2018-02-22T16:14:25.008Z</time>
      </trkpt>
      <trkpt lat="48.53188" lon="2.01">
        <ele>115</ele>
        <time>2018-02-22T16:14:40.009Z</time>
      </trkpt>
      <trkpt lat="48.53183" lon="2.00987">
        <ele>115</ele>
        <time>2018-02-22T16:14:47.009Z</time>
      </trkpt>
      <trkpt lat="48.53184" lon="2.00973">
        <ele>115</ele>
        <time>2018-02-22T16:14:54.009Z</time>
      </trkpt>
      <trkpt lat="48.53189" lon="2.0096">
        <ele>115</ele>
        <time>2018-02-22T16:15:02.009Z</time>
      </trkpt>
      <trkpt lat="48.53198" lon="2.00953">
        <ele>115</ele>
        <time>2018-02-22T16:15:12.007Z</time>
      </trkpt>
      <trkpt lat="48.53207" lon="2.0095">
        <ele>115</ele>
        <time>2018-02-22T16:15:21.009Z</time>
      </trkpt>
      <trkpt lat="48.53213" lon="2.00939">
        <ele>115</ele>
        <time>2018-02-22T16:15:27.009Z</time>
      </trkpt>
      <trkpt lat="48.53222" lon="2.00934">
        <ele>115</ele>
        <time>2018-02-22T16:15:36.009Z</time>
      </trkpt>
      <trkpt lat="48.53231" lon="2.00936">
        <ele>116</ele>
        <time>2018-02-22T16:15:54.007Z</time>
      </trkpt>
      <trkpt lat="48.53241" lon="2.00937">
        <ele>116</ele>
        <time>2018-02-22T16:16:01.009Z</time>
      </trkpt>
      <trkpt lat="48.53251" lon="2.00938">
        <ele>117</ele>
        <time>2018-02-22T16:16:05.009Z</time>
      </trkpt>
      <trkpt lat="48.5326" lon="2.0094">
        <ele>116</ele>
        <time>2018-02-22T16:16:10.009Z</time>
      </trkpt>
      <trkpt lat="48.5327" lon="2.00941">
        <ele>116</ele>
        <time>2018-02-22T16:16:14.009Z</time>
      </trkpt>
      <trkpt lat="48.53279" lon="2.00943">
        <ele>116</ele>
        <time>2018-02-22T16:16:21.009Z</time>
      </trkpt>
      <trkpt lat="48.53288" lon="2.00946">
        <ele>116</ele>
        <time>2018-02-22T16:16:30.040Z</time>
      </trkpt>
      <trkpt lat="48.53296" lon="2.00955">
        <ele>116</ele>
        <time>2018-02-22T16:16:38.008Z</time>
      </trkpt>
      <trkpt lat="48.53306" lon="2.00954">
        <ele>116</ele>
        <time>2018-02-22T16:16:45.008Z</time>
      </trkpt>
      <trkpt lat="48.53315" lon="2.00957">
        <ele>116</ele>
        <time>2018-02-22T16:16:52.008Z</time>
      </trkpt>
      <trkpt lat="48.53325" lon="2.0096">
        <ele>116</ele>
        <time>2018-02-22T16:17:02.011Z</time>
      </trkpt>
      <trkpt lat="48.53334" lon="2.00961">
        <ele>117</ele>
        <time>2018-02-22T16:17:08.011Z</time>
      </trkpt>
      <trkpt lat="48.53339" lon="2.0095">
        <ele>117</ele>
        <time>2018-02-22T16:17:21.007Z</time>
      </trkpt>
      <trkpt lat="48.53348" lon="2.00945">
        <ele>117</ele>
        <time>2018-02-22T16:17:47.012Z</time>
      </trkpt>
      <trkpt lat="48.53358" lon="2.00946">
        <ele>117</ele>
        <time>2018-02-22T16:17:55.008Z</time>
      </trkpt>
      <trkpt lat="48.53367" lon="2.00948">
        <ele>117</ele>
        <time>2018-02-22T16:18:03.008Z</time>
      </trkpt>
      <trkpt lat="48.53376" lon="2.0095">
        <ele>117</ele>
        <time>2018-02-22T16:18:11.008Z</time>
      </trkpt>
      <trkpt lat="48.53385" lon="2.00955">
        <ele>117</ele>
        <time>2018-02-22T16:18:22.008Z</time>
      </trkpt>
      <trkpt lat="48.53393" lon="2.00959">
        <ele>117</ele>
        <time>2018-02-22T16:18:31.012Z</time>
      </trkpt>
      <trkpt lat="48.53402" lon="2.00962">
        <ele>117</ele>
        <time>2018-02-22T16:18:37.007Z</time>
      </trkpt>
      <trkpt lat="48.53412" lon="2.00963">
        <ele>118</ele>
        <time>2018-02-22T16:18:44.012Z</time>
      </trkpt>
      <trkpt lat="48.53422" lon="2.00967">
        <ele>120</ele>
        <time>2018-02-22T16:18:51.010Z</time>
      </trkpt>
      <trkpt lat="48.53428" lon="2.00976">
        <ele>120</ele>
        <time>2018-02-22T16:19:03.008Z</time>
      </trkpt>
      <trkpt lat="48.5342" lon="2.00984">
        <ele>119</ele>
        <time>2018-02-22T16:19:19.008Z</time>
      </trkpt>
      <trkpt lat="48.53417" lon="2.0099">
        <ele>119</ele>
        <time>2018-02-22T16:19:24.012Z</time>
      </trkpt>
    </trkseg>
  </trk>
</gpx>